Observation data for Earth on 01/12/2018      Previous  Date  Next       Current Mesonet Observations  Soil Data  Daily Summary Page  Observations in Plain Language
KEA1 120600Z 13001KT M04/M11 A3026 RMK A01 T10411109  RH  059%=      5-min Rain = 0
KEA1 120601Z 13000KT M04/M11 A3026 RMK A01 T10401108  RH  059%=      5-min Rain = 0
KEA1 120602Z 00000KT M04/M11 A3026 RMK A01 T10401106  RH  060%=      5-min Rain = 0
KEA1 120603Z 00000KT M04/M10 A3026 RMK A01 T10391098  RH  064%=      5-min Rain = 0
KEA1 120604Z 00000KT M04/M09 A3026 RMK A01 T10391094  RH  066%=      5-min Rain = 0
KEA1 120605Z 13001KT M04/M09 A3026 RMK A01 T10391094  RH  066%=      5-min Rain = 0
KEA1 120606Z 13001KT M04/M09 A3026 RMK A01 T10391094  RH  066%=      5-min Rain = 0
KEA1 120607Z 13001KT M04/M10 A3026 RMK A01 T10391098  RH  064%=      5-min Rain = 0
KEA1 120608Z 13001KT M04/M10 A3026 RMK A01 T10391101  RH  062%=      5-min Rain = 0
KEA1 120609Z 13001KT M04/M10 A3026 RMK A01 T10381100  RH  062%=      5-min Rain = 0
KEA1 120610Z 13001KT M04/M10 A3026 RMK A01 T10391098  RH  063%=      5-min Rain = 0
KEA1 120611Z 13001KT M04/M10 A3026 RMK A01 T10381097  RH  064%=      5-min Rain = 0
KEA1 120612Z 17001KT M04/M10 A3026 RMK A01 T10391095  RH  065%=      5-min Rain = 0
KEA1 120613Z 18002KT M04/M10 A3026 RMK A01 T10391095  RH  065%=      5-min Rain = 0
KEA1 120614Z 18002KT M04/M10 A3026 RMK A01 T10401095  RH  066%=      5-min Rain = 0
KEA1 120615Z 17002KT M04/M10 A3025 RMK A01 T10401096  RH  065%=      5-min Rain = 0
KEA1 120616Z 15002KT M04/M10 A3025 RMK A01 T10411101  RH  063%=      5-min Rain = 0
KEA1 120617Z 14003KT M04/M11 A3025 RMK A01 T10411105  RH  061%=      5-min Rain = 0
KEA1 120618Z 14003KT M04/M11 A3025 RMK A01 T10401108  RH  059%=      5-min Rain = 0
KEA1 120619Z 14002KT M04/M11 A3025 RMK A01 T10411113  RH  057%=      5-min Rain = 0
KEA1 120620Z 15003KT M04/M12 A3025 RMK A01 T10441118  RH  056%=      5-min Rain = 0
KEA1 120621Z 15003KT M05/M12 A3025 RMK A01 T10471118  RH  057%=      5-min Rain = 0
KEA1 120622Z 15003KT M05/M12 A3026 RMK A01 T10481118  RH  058%=      5-min Rain = 0
KEA1 120623Z 15003KT M05/M12 A3026 RMK A01 T10501119  RH  058%=      5-min Rain = 0
KEA1 120624Z 15002KT M05/M12 A3026 RMK A01 T10511118  RH  059%=      5-min Rain = 0
KEA1 120625Z 15002KT M05/M12 A3026 RMK A01 T10501116  RH  060%=      5-min Rain = 0
KEA1 120626Z 15002KT M05/M12 A3026 RMK A01 T10491115  RH  060%=      5-min Rain = 0
KEA1 120627Z 14002KT M05/M12 A3026 RMK A01 T10491117  RH  059%=      5-min Rain = 0
KEA1 120628Z 13002KT M05/M12 A3026 RMK A01 T10491117  RH  059%=      5-min Rain = 0
KEA1 120629Z 12002KT M05/M12 A3025 RMK A01 T10491115  RH  060%=      5-min Rain = 0
KEA1 120630Z 12003KT M05/M11 A3026 RMK A01 T10471113  RH  060%=      5-min Rain = 0
KEA1 120631Z 12003KT M05/M12 A3026 RMK A01 T10461115  RH  059%=      5-min Rain = 0
KEA1 120632Z 12003KT M05/M12 A3026 RMK A01 T10461115  RH  058%=      5-min Rain = 0
KEA1 120633Z 12003KT M05/M12 A3025 RMK A01 T10451115  RH  058%=      5-min Rain = 0
KEA1 120634Z 12002KT M05/M12 A3025 RMK A01 T10451116  RH  058%=      5-min Rain = 0
KEA1 120635Z 12002KT M05/M12 A3025 RMK A01 T10451115  RH  058%=      5-min Rain = 0
KEA1 120636Z 12003KT M05/M12 A3025 RMK A01 T10451116  RH  057%=      5-min Rain = 0
KEA1 120637Z 13003KT M05/M12 A3025 RMK A01 T10461118  RH  057%=      5-min Rain = 0
KEA1 120638Z 13003KT M05/M12 A3025 RMK A01 T10491118  RH  059%=      5-min Rain = 0
KEA1 120639Z 13003KT M05/M12 A3025 RMK A01 T10511118  RH  059%=      5-min Rain = 0
KEA1 120640Z 14003KT M05/M12 A3025 RMK A01 T10521120  RH  059%=      5-min Rain = 0
KEA1 120641Z 13003KT M05/M12 A3025 RMK A01 T10541122  RH  059%=      5-min Rain = 0
KEA1 120642Z 13004KT M06/M12 A3025 RMK A01 T10551122  RH  059%=      5-min Rain = 0
KEA1 120643Z 13003KT M05/M12 A3025 RMK A01 T10541121  RH  060%=      5-min Rain = 0
KEA1 120644Z 13004KT M06/M12 A3025 RMK A01 T10551121  RH  060%=      5-min Rain = 0
KEA1 120645Z 13004KT M05/M12 A3025 RMK A01 T10541119  RH  060%=      5-min Rain = 0
KEA1 120646Z 13004KT M05/M12 A3025 RMK A01 T10541119  RH  060%=      5-min Rain = 0
KEA1 120647Z 13004KT M05/M12 A3025 RMK A01 T10531118  RH  060%=      5-min Rain = 0
KEA1 120648Z 13004KT M05/M12 A3025 RMK A01 T10521118  RH  060%=      5-min Rain = 0
KEA1 120649Z 12004KT M05/M12 A3025 RMK A01 T10511117  RH  060%=      5-min Rain = 0
KEA1 120650Z 13004KT M05/M12 A3025 RMK A01 T10501117  RH  059%=      5-min Rain = 0
KEA1 120651Z 13004KT M05/M12 A3025 RMK A01 T10501118  RH  059%=      5-min Rain = 0
KEA1 120652Z 13004KT M05/M12 A3025 RMK A01 T10501119  RH  059%=      5-min Rain = 0
KEA1 120653Z 13004KT M05/M12 A3025 RMK A01 T10511119  RH  059%=      5-min Rain = 0
KEA1 120654Z 13004KT M05/M12 A3025 RMK A01 T10521121  RH  058%=      5-min Rain = 0
KEA1 120655Z 14004KT M05/M12 A3025 RMK A01 T10531122  RH  058%=      5-min Rain = 0
KEA1 120656Z 14005KT M06/M12 A3025 RMK A01 T10551123  RH  059%=      5-min Rain = 0
KEA1 120657Z 14004KT M06/M12 A3025 RMK A01 T10571124  RH  059%=      5-min Rain = 0
KEA1 120658Z 14005KT M06/M12 A3025 RMK A01 T10571123  RH  060%=      5-min Rain = 0
KEA1 120659Z 14005KT M06/M12 A3025 RMK A01 T10581122  RH  060%=      5-min Rain = 0
KEA1 120700Z 14005KT M06/M12 A3025 RMK A01 T10581122  RH  060%=      5-min Rain = 0
KEA1 120701Z 14005KT M06/M12 A3025 RMK A01 T10581122  RH  061%=      5-min Rain = 0
KEA1 120702Z 14005KT M06/M12 A3025 RMK A01 T10581122  RH  061%=      5-min Rain = 0
KEA1 120703Z 14005KT M06/M12 A3025 RMK A01 T10581123  RH  060%=      5-min Rain = 0
KEA1 120704Z 14005KT M06/M12 A3025 RMK A01 T10601124  RH  060%=      5-min Rain = 0
KEA1 120705Z 14006KT M06/M12 A3025 RMK A01 T10601123  RH  061%=      5-min Rain = 0
KEA1 120706Z 13005KT M06/M12 A3025 RMK A01 T10611122  RH  062%=      5-min Rain = 0
KEA1 120707Z 13005KT M06/M12 A3025 RMK A01 T10601120  RH  062%=      5-min Rain = 0
KEA1 120708Z 13005KT M06/M12 A3025 RMK A01 T10591120  RH  062%=      5-min Rain = 0
KEA1 120709Z 13005KT M06/M12 A3025 RMK A01 T10571119  RH  062%=      5-min Rain = 0
KEA1 120710Z 13005KT M06/M12 A3025 RMK A01 T10571118  RH  062%=      5-min Rain = 0
KEA1 120711Z 14005KT M06/M12 A3025 RMK A01 T10561119  RH  061%=      5-min Rain = 0
KEA1 120712Z 14005KT M06/M12 A3025 RMK A01 T10571121  RH  061%=      5-min Rain = 0
KEA1 120713Z 14005KT M06/M12 A3025 RMK A01 T10581121  RH  061%=      5-min Rain = 0
KEA1 120714Z 14005KT M06/M12 A3025 RMK A01 T10571118  RH  062%=      5-min Rain = 0
KEA1 120715Z 14005KT M06/M12 A3025 RMK A01 T10551117  RH  062%=      5-min Rain = 0
KEA1 120716Z 14006KT M06/M12 A3025 RMK A01 T10551118  RH  061%=      5-min Rain = 0
KEA1 120717Z 14006KT M06/M12 A3025 RMK A01 T10551119  RH  061%=      5-min Rain = 0
KEA1 120718Z 14006KT M06/M12 A3025 RMK A01 T10551119  RH  061%=      5-min Rain = 0
KEA1 120719Z 14006KT M06/M12 A3025 RMK A01 T10551119  RH  061%=      5-min Rain = 0
KEA1 120720Z 14006KT M06/M12 A3025 RMK A01 T10561119  RH  061%=      5-min Rain = 0
KEA1 120721Z 14006KT M06/M12 A3025 RMK A01 T10551118  RH  061%=      5-min Rain = 0
KEA1 120722Z 14007KT M06/M12 A3025 RMK A01 T10561119  RH  061%=      5-min Rain = 0
KEA1 120723Z 14007KT M06/M12 A3025 RMK A01 T10561120  RH  061%=      5-min Rain = 0
KEA1 120724Z 14007KT M06/M12 A3025 RMK A01 T10581122  RH  061%=      5-min Rain = 0
KEA1 120725Z 14007KT M06/M12 A3025 RMK A01 T10591122  RH  061%=      5-min Rain = 0
KEA1 120726Z 13006KT M06/M12 A3025 RMK A01 T10601121  RH  062%=      5-min Rain = 0
KEA1 120727Z 13006KT M06/M12 A3025 RMK A01 T10591119  RH  062%=      5-min Rain = 0
KEA1 120728Z 14006KT M06/M12 A3025 RMK A01 T10581119  RH  062%=      5-min Rain = 0
KEA1 120729Z 14006KT M06/M12 A3025 RMK A01 T10581120  RH  062%=      5-min Rain = 0
KEA1 120730Z 14006KT M06/M12 A3025 RMK A01 T10581120  RH  062%=      5-min Rain = 0
KEA1 120731Z 14006KT M06/M12 A3025 RMK A01 T10591121  RH  062%=      5-min Rain = 0
KEA1 120732Z 14006KT M06/M12 A3025 RMK A01 T10591121  RH  062%=      5-min Rain = 0
KEA1 120733Z 14006KT M06/M12 A3025 RMK A01 T10601120  RH  062%=      5-min Rain = 0
KEA1 120734Z 15007KT M06/M12 A3025 RMK A01 T10591120  RH  062%=      5-min Rain = 0
KEA1 120735Z 15007KT M06/M12 A3025 RMK A01 T10601120  RH  062%=      5-min Rain = 0
KEA1 120736Z 14007KT M06/M12 A3025 RMK A01 T10601120  RH  062%=      5-min Rain = 0
KEA1 120737Z 14007KT M06/M12 A3025 RMK A01 T10601120  RH  062%=      5-min Rain = 0
KEA1 120738Z 14007KT M06/M12 A3025 RMK A01 T10591120  RH  062%=      5-min Rain = 0
KEA1 120739Z 14007KT M06/M12 A3025 RMK A01 T10591120  RH  062%=      5-min Rain = 0
KEA1 120740Z 14007KT M06/M12 A3025 RMK A01 T10591120  RH  062%=      5-min Rain = 0
KEA1 120741Z 14007KT M06/M12 A3025 RMK A01 T10601121  RH  062%=      5-min Rain = 0
KEA1 120742Z 15007KT M06/M12 A3025 RMK A01 T10611122  RH  062%=      5-min Rain = 0
KEA1 120743Z 15007KT M06/M12 A3025 RMK A01 T10611121  RH  062%=      5-min Rain = 0
KEA1 120744Z 15007KT M06/M12 A3025 RMK A01 T10621122  RH  063%=      5-min Rain = 0
KEA1 120745Z 15007KT M06/M12 A3025 RMK A01 T10621121  RH  063%=      5-min Rain = 0
KEA1 120746Z 16006KT M06/M12 A3025 RMK A01 T10631123  RH  063%=      5-min Rain = 0
KEA1 120747Z 16006KT M06/M12 A3025 RMK A01 T10641124  RH  063%=      5-min Rain = 0
KEA1 120748Z 16006KT M07/M12 A3025 RMK A01 T10651123  RH  063%=      5-min Rain = 0
KEA1 120749Z 16006KT M07/M12 A3025 RMK A01 T10651121  RH  065%=      5-min Rain = 0
KEA1 120750Z 16006KT M06/M12 A3025 RMK A01 T10631119  RH  065%=      5-min Rain = 0
KEA1 120751Z 16007KT M06/M12 A3025 RMK A01 T10621120  RH  064%=      5-min Rain = 0
KEA1 120752Z 16007KT M06/M12 A3025 RMK A01 T10631121  RH  064%=      5-min Rain = 0
KEA1 120753Z 16007KT M06/M12 A3024 RMK A01 T10631121  RH  064%=      5-min Rain = 0
KEA1 120754Z 16007KT M06/M12 A3024 RMK A01 T10631121  RH  064%=      5-min Rain = 0
KEA1 120755Z 16006KT M06/M12 A3024 RMK A01 T10641120  RH  064%=      5-min Rain = 0
KEA1 120756Z 16006KT M06/M12 A3024 RMK A01 T10631119  RH  065%=      5-min Rain = 0
KEA1 120757Z 16006KT M06/M12 A3024 RMK A01 T10621119  RH  064%=      5-min Rain = 0
KEA1 120758Z 16006KT M06/M12 A3024 RMK A01 T10621119  RH  064%=      5-min Rain = 0
KEA1 120759Z 17006KT M06/M12 A3025 RMK A01 T10621119  RH  064%=      5-min Rain = 0
KEA1 120800Z 17006KT M06/M12 A3025 RMK A01 T10631121  RH  064%=      5-min Rain = 0
KEA1 120801Z 17006KT M06/M12 A3025 RMK A01 T10641121  RH  064%=      5-min Rain = 0
KEA1 120802Z 17007KT M07/M12 A3025 RMK A01 T10651122  RH  064%=      5-min Rain = 0
KEA1 120803Z 18007KT M07/M12 A3025 RMK A01 T10661122  RH  064%=      5-min Rain = 0
KEA1 120804Z 17007KT M07/M12 A3025 RMK A01 T10681124  RH  064%=      5-min Rain = 0
KEA1 120805Z 18007KT M07/M12 A3025 RMK A01 T10691124  RH  065%=      5-min Rain = 0
KEA1 120806Z 18007KT M07/M12 A3025 RMK A01 T10691124  RH  065%=      5-min Rain = 0
KEA1 120807Z 17007KT M07/M12 A3025 RMK A01 T10701123  RH  066%=      5-min Rain = 0
KEA1 120808Z 18007KT M07/M12 A3025 RMK A01 T10701122  RH  066%=      5-min Rain = 0
KEA1 120809Z 18006KT M07/M12 A3025 RMK A01 T10701122  RH  066%=      5-min Rain = 0
KEA1 120810Z 18006KT M07/M12 A3025 RMK A01 T10691121  RH  067%=      5-min Rain = 0
KEA1 120811Z 18006KT M07/M12 A3025 RMK A01 T10681120  RH  067%=      5-min Rain = 0
KEA1 120812Z 18007KT M07/M12 A3025 RMK A01 T10681120  RH  066%=      5-min Rain = 0
KEA1 120813Z 18007KT M07/M12 A3025 RMK A01 T10671119  RH  066%=      5-min Rain = 0
KEA1 120814Z 17007KT M07/M12 A3025 RMK A01 T10661119  RH  066%=      5-min Rain = 0
KEA1 120815Z 17007KT M07/M12 A3024 RMK A01 T10661120  RH  065%=      5-min Rain = 0
KEA1 120816Z 17007KT M07/M12 A3024 RMK A01 T10671121  RH  065%=      5-min Rain = 0
KEA1 120817Z 18007KT M07/M12 A3024 RMK A01 T10681122  RH  065%=      5-min Rain = 0
KEA1 120818Z 18008KT M07/M12 A3024 RMK A01 T10691123  RH  066%=      5-min Rain = 0
KEA1 120819Z 18008KT M07/M12 A3024 RMK A01 T10701123  RH  066%=      5-min Rain = 0
KEA1 120820Z 18008KT M07/M12 A3024 RMK A01 T10711124  RH  066%=      5-min Rain = 0
KEA1 120821Z 18008KT M07/M12 A3024 RMK A01 T10721124  RH  066%=      5-min Rain = 0
KEA1 120822Z 18008KT M07/M13 A3024 RMK A01 T10731125  RH  066%=      5-min Rain = 0
KEA1 120823Z 18009KT M07/M13 A3024 RMK A01 T10731125  RH  066%=      5-min Rain = 0
KEA1 120824Z 18009KT M07/M13 A3024 RMK A01 T10741126  RH  067%=      5-min Rain = 0
KEA1 120825Z 18009KT M08/M13 A3024 RMK A01 T10751126  RH  067%=      5-min Rain = 0
KEA1 120826Z 18009KT M08/M13 A3024 RMK A01 T10751126  RH  067%=      5-min Rain = 0
KEA1 120827Z 18009KT M08/M13 A3024 RMK A01 T10761125  RH  068%=      5-min Rain = 0
KEA1 120828Z 18008KT M08/M12 A3024 RMK A01 T10751124  RH  068%=      5-min Rain = 0
KEA1 120829Z 18008KT M08/M12 A3024 RMK A01 T10751124  RH  068%=      5-min Rain = 0
KEA1 120830Z 18009KT M08/M12 A3024 RMK A01 T10751124  RH  068%=      5-min Rain = 0
KEA1 120831Z 19009KT M07/M12 A3024 RMK A01 T10741123  RH  068%=      5-min Rain = 0
KEA1 120832Z 19009KT M07/M12 A3024 RMK A01 T10741122  RH  068%=      5-min Rain = 0
KEA1 120833Z 19009KT M07/M12 A3024 RMK A01 T10731121  RH  068%=      5-min Rain = 0
KEA1 120834Z 19009KT M07/M12 A3024 RMK A01 T10721120  RH  068%=      5-min Rain = 0
KEA1 120835Z 18010KT M07/M12 A3024 RMK A01 T10711120  RH  068%=      5-min Rain = 0
KEA1 120836Z 19009KT M07/M12 A3024 RMK A01 T10701120  RH  067%=      5-min Rain = 0
KEA1 120837Z 18009KT M07/M12 A3024 RMK A01 T10701121  RH  067%=      5-min Rain = 0
KEA1 120838Z 19009KT M07/M12 A3024 RMK A01 T10701121  RH  067%=      5-min Rain = 0
KEA1 120839Z 19009KT M07/M12 A3024 RMK A01 T10701121  RH  067%=      5-min Rain = 0
KEA1 120840Z 19008KT M07/M12 A3024 RMK A01 T10701121  RH  067%=      5-min Rain = 0
KEA1 120841Z 19009KT M07/M12 A3024 RMK A01 T10701122  RH  067%=      5-min Rain = 0
KEA1 120842Z 19009KT M07/M12 A3024 RMK A01 T10711123  RH  067%=      5-min Rain = 0
KEA1 120843Z 19009KT M07/M12 A3024 RMK A01 T10721123  RH  067%=      5-min Rain = 0
KEA1 120844Z 18009KT M07/M13 A3024 RMK A01 T10741125  RH  067%=      5-min Rain = 0
KEA1 120845Z 18009KT M08/M13 A3024 RMK A01 T10751125  RH  067%=      5-min Rain = 0
KEA1 120846Z 18009KT M08/M13 A3024 RMK A01 T10751125  RH  068%=      5-min Rain = 0
KEA1 120847Z 18009KT M08/M13 A3024 RMK A01 T10761125  RH  068%=      5-min Rain = 0
KEA1 120848Z 18009KT M08/M12 A3024 RMK A01 T10761124  RH  068%=      5-min Rain = 0
KEA1 120849Z 18010KT M08/M12 A3024 RMK A01 T10761124  RH  068%=      5-min Rain = 0
KEA1 120850Z 18010KT M08/M13 A3023 RMK A01 T10771125  RH  068%=      5-min Rain = 0
KEA1 120851Z 18010KT M08/M13 A3023 RMK A01 T10771125  RH  069%=      5-min Rain = 0
KEA1 120852Z 18010KT M08/M12 A3023 RMK A01 T10771124  RH  069%=      5-min Rain = 0
KEA1 120853Z 18010KT M08/M12 A3023 RMK A01 T10761123  RH  069%=      5-min Rain = 0
KEA1 120854Z 18011KT M08/M12 A3023 RMK A01 T10751122  RH  069%=      5-min Rain = 0
KEA1 120855Z 18011KT M07/M12 A3023 RMK A01 T10741123  RH  068%=      5-min Rain = 0
KEA1 120856Z 18010KT M07/M12 A3023 RMK A01 T10741123  RH  068%=      5-min Rain = 0
KEA1 120857Z 18010KT M07/M12 A3023 RMK A01 T10741123  RH  068%=      5-min Rain = 0
KEA1 120858Z 18011KT M07/M12 A3023 RMK A01 T10741123  RH  068%=      5-min Rain = 0
KEA1 120859Z 18011KT M07/M12 A3023 RMK A01 T10741123  RH  068%=      5-min Rain = 0
KEA1 120900Z 18010KT M07/M12 A3023 RMK A01 T10741123  RH  068%=      5-min Rain = 0
KEA1 120901Z 18010KT M07/M12 A3023 RMK A01 T10741123  RH  068%=      5-min Rain = 0
KEA1 120902Z 18010KT M07/M12 A3022 RMK A01 T10741122  RH  068%=      5-min Rain = 0
KEA1 120903Z 18010KT M07/M12 A3022 RMK A01 T10731122  RH  068%=      5-min Rain = 0
KEA1 120904Z 18010KT M07/M12 A3022 RMK A01 T10731122  RH  068%=      5-min Rain = 0
KEA1 120905Z 18010KT M07/M12 A3022 RMK A01 T10721122  RH  068%=      5-min Rain = 0
KEA1 120906Z 18010KT M07/M12 A3022 RMK A01 T10721121  RH  068%=      5-min Rain = 0
KEA1 120907Z 18010KT M07/M12 A3022 RMK A01 T10711121  RH  068%=      5-min Rain = 0
KEA1 120908Z 18010KT M07/M12 A3022 RMK A01 T10711121  RH  068%=      5-min Rain = 0
KEA1 120909Z 18010KT M07/M12 A3022 RMK A01 T10711120  RH  068%=      5-min Rain = 0
KEA1 120910Z 18009KT M07/M12 A3022 RMK A01 T10711120  RH  068%=      5-min Rain = 0
KEA1 120911Z 18009KT M07/M12 A3022 RMK A01 T10701120  RH  067%=      5-min Rain = 0
KEA1 120912Z 18009KT M07/M12 A3022 RMK A01 T10701121  RH  067%=      5-min Rain = 0
KEA1 120913Z 18009KT M07/M12 A3022 RMK A01 T10711121  RH  067%=      5-min Rain = 0
KEA1 120914Z 18009KT M07/M12 A3022 RMK A01 T10721122  RH  067%=      5-min Rain = 0
KEA1 120915Z 18009KT M07/M12 A3022 RMK A01 T10731123  RH  068%=      5-min Rain = 0
KEA1 120916Z 18009KT M08/M12 A3022 RMK A01 T10751124  RH  068%=      5-min Rain = 0
KEA1 120917Z 18009KT M08/M12 A3022 RMK A01 T10751123  RH  068%=      5-min Rain = 0
KEA1 120918Z 18009KT M08/M12 A3022 RMK A01 T10751122  RH  069%=      5-min Rain = 0
KEA1 120919Z 18008KT M08/M12 A3022 RMK A01 T10751122  RH  069%=      5-min Rain = 0
KEA1 120920Z 18009KT M08/M12 A3022 RMK A01 T10751122  RH  069%=      5-min Rain = 0
KEA1 120921Z 18008KT M08/M12 A3022 RMK A01 T10751122  RH  069%=      5-min Rain = 0
KEA1 120922Z 18008KT M08/M12 A3022 RMK A01 T10751122  RH  069%=      5-min Rain = 0
KEA1 120923Z 18009KT M08/M12 A3022 RMK A01 T10751122  RH  069%=      5-min Rain = 0
KEA1 120924Z 18009KT M08/M12 A3022 RMK A01 T10751122  RH  069%=      5-min Rain = 0
KEA1 120925Z 18009KT M08/M12 A3021 RMK A01 T10751123  RH  069%=      5-min Rain = 0
KEA1 120926Z 18009KT M08/M12 A3021 RMK A01 T10761124  RH  069%=      5-min Rain = 0
KEA1 120927Z 18008KT M08/M13 A3021 RMK A01 T10771125  RH  069%=      5-min Rain = 0
KEA1 120928Z 18008KT M08/M12 A3021 RMK A01 T10781124  RH  069%=      5-min Rain = 0
KEA1 120929Z 18008KT M08/M13 A3021 RMK A01 T10791125  RH  070%=      5-min Rain = 0
KEA1 120930Z 18008KT M08/M12 A3021 RMK A01 T10791124  RH  070%=      5-min Rain = 0
KEA1 120931Z 18008KT M08/M12 A3021 RMK A01 T10791123  RH  070%=      5-min Rain = 0
KEA1 120932Z 18009KT M08/M12 A3021 RMK A01 T10771122  RH  070%=      5-min Rain = 0
KEA1 120933Z 18008KT M08/M12 A3021 RMK A01 T10761122  RH  070%=      5-min Rain = 0
KEA1 120934Z 18008KT M08/M12 A3021 RMK A01 T10751121  RH  070%=      5-min Rain = 0
KEA1 120935Z 18009KT M08/M12 A3021 RMK A01 T10751121  RH  069%=      5-min Rain = 0
KEA1 120936Z 18009KT M07/M12 A3021 RMK A01 T10741121  RH  069%=      5-min Rain = 0
KEA1 120937Z 18009KT M07/M12 A3021 RMK A01 T10731121  RH  069%=      5-min Rain = 0
KEA1 120938Z 18009KT M07/M12 A3021 RMK A01 T10731121  RH  069%=      5-min Rain = 0
KEA1 120939Z 18009KT M07/M12 A3021 RMK A01 T10731122  RH  068%=      5-min Rain = 0
KEA1 120940Z 18009KT M07/M12 A3021 RMK A01 T10731122  RH  068%=      5-min Rain = 0
KEA1 120941Z 18009KT M07/M12 A3021 RMK A01 T10731122  RH  068%=      5-min Rain = 0
KEA1 120942Z 18009KT M07/M12 A3021 RMK A01 T10731121  RH  068%=      5-min Rain = 0
KEA1 120943Z 18009KT M07/M12 A3021 RMK A01 T10731122  RH  068%=      5-min Rain = 0
KEA1 120944Z 18008KT M07/M12 A3021 RMK A01 T10731121  RH  068%=      5-min Rain = 0
KEA1 120945Z 18008KT M07/M12 A3021 RMK A01 T10721121  RH  068%=      5-min Rain = 0
KEA1 120946Z 19008KT M07/M12 A3021 RMK A01 T10711120  RH  068%=      5-min Rain = 0
KEA1 120947Z 19008KT M07/M12 A302 RMK A01 T10701120  RH  068%=      5-min Rain = 0
KEA1 120948Z 19009KT M07/M12 A302 RMK A01 T10701120  RH  068%=      5-min Rain = 0
KEA1 120949Z 19009KT M07/M12 A302 RMK A01 T10701120  RH  068%=      5-min Rain = 0
KEA1 120950Z 19009KT M07/M12 A3021 RMK A01 T10701120  RH  067%=      5-min Rain = 0
KEA1 120951Z 19009KT M07/M12 A3021 RMK A01 T10701120  RH  068%=      5-min Rain = 0
KEA1 120952Z 19009KT M07/M12 A3021 RMK A01 T10711121  RH  067%=      5-min Rain = 0
KEA1 120953Z 19009KT M07/M12 A3021 RMK A01 T10711121  RH  068%=      5-min Rain = 0
KEA1 120954Z 19008KT M07/M12 A3021 RMK A01 T10721122  RH  068%=      5-min Rain = 0
KEA1 120955Z 19008KT M07/M12 A3021 RMK A01 T10721121  RH  068%=      5-min Rain = 0
KEA1 120956Z 20008KT M07/M12 A3021 RMK A01 T10711121  RH  068%=      5-min Rain = 0
KEA1 120957Z 20009KT M07/M12 A3021 RMK A01 T10711120  RH  068%=      5-min Rain = 0
KEA1 120958Z 20009KT M07/M12 A3022 RMK A01 T10691119  RH  068%=      5-min Rain = 0
KEA1 120959Z 20008KT M07/M12 A3022 RMK A01 T10691119  RH  067%=      5-min Rain = 0
KEA1 121000Z 20009KT M07/M12 A3022 RMK A01 T10681118  RH  067%=      5-min Rain = 0
KEA1 121001Z 20009KT M07/M12 A3022 RMK A01 T10671118  RH  067%=      5-min Rain = 0
KEA1 121002Z 20009KT M07/M12 A3022 RMK A01 T10651117  RH  067%=      5-min Rain = 0
KEA1 121003Z 20009KT M06/M12 A3022 RMK A01 T10631116  RH  066%=      5-min Rain = 0
KEA1 121004Z 20009KT M06/M12 A3022 RMK A01 T10621116  RH  066%=      5-min Rain = 0
KEA1 121005Z 20009KT M06/M12 A3022 RMK A01 T10601115  RH  065%=      5-min Rain = 0
KEA1 121006Z 20009KT M06/M11 A3022 RMK A01 T10591114  RH  065%=      5-min Rain = 0
KEA1 121007Z 20010KT M06/M11 A3022 RMK A01 T10561112  RH  065%=      5-min Rain = 0
KEA1 121008Z 20010KT M05/M11 A3021 RMK A01 T10541112  RH  064%=      5-min Rain = 0
KEA1 121009Z 20009KT M05/M11 A3021 RMK A01 T10531111  RH  063%=      5-min Rain = 0
KEA1 121010Z 20009KT M05/M11 A3021 RMK A01 T10511111  RH  063%=      5-min Rain = 0
KEA1 121011Z 20009KT M05/M11 A3021 RMK A01 T10501111  RH  062%=      5-min Rain = 0
KEA1 121012Z 20009KT M05/M11 A3021 RMK A01 T10491111  RH  062%=      5-min Rain = 0
KEA1 121013Z 20009KT M05/M11 A3021 RMK A01 T10491112  RH  061%=      5-min Rain = 0
KEA1 121014Z 20009KT M05/M11 A3021 RMK A01 T10481111  RH  061%=      5-min Rain = 0
KEA1 121015Z 20009KT M05/M11 A3022 RMK A01 T10481111  RH  061%=      5-min Rain = 0
KEA1 121016Z 20009KT M05/M11 A3022 RMK A01 T10481111  RH  061%=      5-min Rain = 0
KEA1 121017Z 20009KT M05/M11 A3022 RMK A01 T10481112  RH  061%=      5-min Rain = 0
KEA1 121018Z 20009KT M05/M11 A3022 RMK A01 T10481112  RH  061%=      5-min Rain = 0
KEA1 121019Z 20009KT M05/M11 A3022 RMK A01 T10491112  RH  061%=      5-min Rain = 0
KEA1 121020Z 20009KT M05/M11 A3022 RMK A01 T10491113  RH  061%=      5-min Rain = 0
KEA1 121021Z 20009KT M05/M11 A3022 RMK A01 T10491112  RH  061%=      5-min Rain = 0
KEA1 121022Z 20010KT M05/M11 A3022 RMK A01 T10501113  RH  061%=      5-min Rain = 0
KEA1 121023Z 20010KT M05/M11 A3022 RMK A01 T10501113  RH  061%=      5-min Rain = 0
KEA1 121024Z 20010KT M05/M11 A3022 RMK A01 T10501113  RH  061%=      5-min Rain = 0
KEA1 121025Z 20009KT M05/M11 A3022 RMK A01 T10511114  RH  061%=      5-min Rain = 0
KEA1 121026Z 20010KT M05/M11 A3022 RMK A01 T10511114  RH  061%=      5-min Rain = 0
KEA1 121027Z 20010KT M05/M11 A3022 RMK A01 T10511114  RH  061%=      5-min Rain = 0
KEA1 121028Z 20010KT M05/M11 A3021 RMK A01 T10511114  RH  061%=      5-min Rain = 0
KEA1 121029Z 20010KT M05/M11 A3021 RMK A01 T10511114  RH  061%=      5-min Rain = 0
KEA1 121030Z 20010KT M05/M11 A3021 RMK A01 T10511114  RH  061%=      5-min Rain = 0
KEA1 121031Z 20010KT M05/M11 A3021 RMK A01 T10511114  RH  061%=      5-min Rain = 0
KEA1 121032Z 20010KT M05/M12 A3021 RMK A01 T10521115  RH  061%=      5-min Rain = 0
KEA1 121033Z 20010KT M05/M12 A3021 RMK A01 T10521115  RH  061%=      5-min Rain = 0
KEA1 121034Z 20010KT M05/M12 A3021 RMK A01 T10521115  RH  061%=      5-min Rain = 0
KEA1 121035Z 20010KT M05/M12 A3021 RMK A01 T10521115  RH  061%=      5-min Rain = 0
KEA1 121036Z 20010KT M05/M12 A3021 RMK A01 T10521115  RH  061%=      5-min Rain = 0
KEA1 121037Z 20010KT M05/M12 A3021 RMK A01 T10521115  RH  061%=      5-min Rain = 0
KEA1 121038Z 20010KT M05/M12 A3021 RMK A01 T10531116  RH  061%=      5-min Rain = 0
KEA1 121039Z 20010KT M05/M12 A3021 RMK A01 T10531116  RH  061%=      5-min Rain = 0
KEA1 121040Z 20009KT M05/M12 A3021 RMK A01 T10541117  RH  061%=      5-min Rain = 0
KEA1 121041Z 20010KT M06/M12 A3021 RMK A01 T10551117  RH  062%=      5-min Rain = 0
KEA1 121042Z 20009KT M06/M12 A3021 RMK A01 T10561117  RH  062%=      5-min Rain = 0
KEA1 121043Z 20009KT M06/M12 A3021 RMK A01 T10561118  RH  062%=      5-min Rain = 0
KEA1 121044Z 20009KT M06/M12 A3021 RMK A01 T10571118  RH  062%=      5-min Rain = 0
KEA1 121045Z 20009KT M06/M12 A3021 RMK A01 T10581118  RH  062%=      5-min Rain = 0
KEA1 121046Z 20009KT M06/M12 A302 RMK A01 T10591118  RH  063%=      5-min Rain = 0
KEA1 121047Z 20009KT M06/M12 A302 RMK A01 T10601119  RH  063%=      5-min Rain = 0
KEA1 121048Z 20009KT M06/M12 A302 RMK A01 T10611120  RH  063%=      5-min Rain = 0
KEA1 121049Z 20009KT M06/M12 A302 RMK A01 T10621120  RH  063%=      5-min Rain = 0
KEA1 121050Z 20010KT M06/M12 A302 RMK A01 T10621120  RH  064%=      5-min Rain = 0
KEA1 121051Z 20010KT M06/M12 A302 RMK A01 T10631121  RH  064%=      5-min Rain = 0
KEA1 121052Z 20010KT M06/M12 A302 RMK A01 T10641120  RH  064%=      5-min Rain = 0
KEA1 121053Z 20010KT M06/M12 A302 RMK A01 T10641120  RH  064%=      5-min Rain = 0
KEA1 121054Z 20010KT M06/M12 A302 RMK A01 T10641120  RH  065%=      5-min Rain = 0
KEA1 121055Z 20009KT M06/M12 A302 RMK A01 T10641120  RH  065%=      5-min Rain = 0
KEA1 121056Z 20009KT M06/M12 A302 RMK A01 T10641120  RH  065%=      5-min Rain = 0
KEA1 121057Z 20009KT M06/M12 A302 RMK A01 T10641120  RH  065%=      5-min Rain = 0
KEA1 121058Z 20009KT M06/M12 A302 RMK A01 T10641120  RH  065%=      5-min Rain = 0
KEA1 121059Z 20009KT M06/M12 A302 RMK A01 T10641120  RH  065%=      5-min Rain = 0
KEA1 121100Z 20009KT M06/M12 A302 RMK A01 T10641120  RH  065%=      5-min Rain = 0
KEA1 121101Z 20009KT M06/M12 A302 RMK A01 T10641120  RH  065%=      5-min Rain = 0
KEA1 121102Z 20009KT M06/M12 A302 RMK A01 T10641120  RH  065%=      5-min Rain = 0
KEA1 121103Z 20009KT M06/M12 A302 RMK A01 T10641120  RH  064%=      5-min Rain = 0
KEA1 121104Z 19009KT M06/M12 A302 RMK A01 T10641120  RH  064%=      5-min Rain = 0
KEA1 121105Z 20009KT M07/M12 A302 RMK A01 T10651121  RH  065%=      5-min Rain = 0
KEA1 121106Z 19009KT M07/M12 A302 RMK A01 T10651121  RH  065%=      5-min Rain = 0
KEA1 121107Z 19009KT M07/M12 A302 RMK A01 T10661121  RH  065%=      5-min Rain = 0
KEA1 121108Z 19009KT M07/M12 A302 RMK A01 T10661121  RH  065%=      5-min Rain = 0
KEA1 121109Z 19009KT M07/M12 A3019 RMK A01 T10671121  RH  065%=      5-min Rain = 0
KEA1 121110Z 19009KT M07/M12 A3019 RMK A01 T10671121  RH  065%=      5-min Rain = 0
KEA1 121111Z 19008KT M07/M12 A3019 RMK A01 T10671121  RH  065%=      5-min Rain = 0
KEA1 121112Z 19008KT M07/M12 A3019 RMK A01 T10691122  RH  065%=      5-min Rain = 0
KEA1 121113Z 19008KT M07/M12 A3019 RMK A01 T10701123  RH  066%=      5-min Rain = 0
KEA1 121114Z 19008KT M07/M12 A3019 RMK A01 T10711123  RH  066%=      5-min Rain = 0
KEA1 121115Z 19008KT M07/M12 A3019 RMK A01 T10721124  RH  066%=      5-min Rain = 0
KEA1 121116Z 19008KT M07/M12 A3019 RMK A01 T10731124  RH  067%=      5-min Rain = 0
KEA1 121117Z 19008KT M07/M12 A3019 RMK A01 T10741124  RH  067%=      5-min Rain = 0
KEA1 121118Z 19009KT M07/M12 A3019 RMK A01 T10741124  RH  067%=      5-min Rain = 0
KEA1 121119Z 19009KT M08/M12 A3019 RMK A01 T10751124  RH  068%=      5-min Rain = 0
KEA1 121120Z 19009KT M08/M12 A3019 RMK A01 T10751124  RH  068%=      5-min Rain = 0
KEA1 121121Z 19009KT M08/M12 A3019 RMK A01 T10751124  RH  068%=      5-min Rain = 0
KEA1 121122Z 19009KT M08/M12 A3019 RMK A01 T10751124  RH  068%=      5-min Rain = 0
KEA1 121123Z 19009KT M08/M12 A3019 RMK A01 T10751123  RH  068%=      5-min Rain = 0
KEA1 121124Z 19009KT M08/M12 A3019 RMK A01 T10751123  RH  068%=      5-min Rain = 0
KEA1 121125Z 19009KT M07/M12 A3019 RMK A01 T10741123  RH  068%=      5-min Rain = 0
KEA1 121126Z 19009KT M07/M12 A3019 RMK A01 T10731122  RH  068%=      5-min Rain = 0
KEA1 121127Z 19009KT M07/M12 A3019 RMK A01 T10711121  RH  068%=      5-min Rain = 0
KEA1 121128Z 19009KT M07/M12 A3018 RMK A01 T10701121  RH  067%=      5-min Rain = 0
KEA1 121129Z 19009KT M07/M12 A3018 RMK A01 T10701122  RH  067%=      5-min Rain = 0
KEA1 121130Z 19009KT M07/M12 A3018 RMK A01 T10691121  RH  067%=      5-min Rain = 0
KEA1 121131Z 19009KT M07/M12 A3018 RMK A01 T10691121  RH  067%=      5-min Rain = 0
KEA1 121132Z 19009KT M07/M12 A3019 RMK A01 T10681120  RH  066%=      5-min Rain = 0
KEA1 121133Z 19009KT M07/M12 A3019 RMK A01 T10681121  RH  066%=      5-min Rain = 0
KEA1 121134Z 19009KT M07/M12 A3019 RMK A01 T10681121  RH  066%=      5-min Rain = 0
KEA1 121135Z 19008KT M07/M12 A3019 RMK A01 T10691122  RH  066%=      5-min Rain = 0
KEA1 121136Z 19008KT M07/M12 A3019 RMK A01 T10701121  RH  067%=      5-min Rain = 0
KEA1 121137Z 19008KT M07/M12 A3019 RMK A01 T10701121  RH  067%=      5-min Rain = 0
KEA1 121138Z 19008KT M07/M12 A3019 RMK A01 T10701121  RH  067%=      5-min Rain = 0
KEA1 121139Z 19007KT M07/M12 A3019 RMK A01 T10701121  RH  067%=      5-min Rain = 0
KEA1 121140Z 19008KT M07/M12 A3019 RMK A01 T10711122  RH  067%=      5-min Rain = 0
KEA1 121141Z 19008KT M07/M12 A3019 RMK A01 T10711122  RH  067%=      5-min Rain = 0
KEA1 121142Z 19008KT M07/M12 A3019 RMK A01 T10721122  RH  067%=      5-min Rain = 0
KEA1 121143Z 19008KT M07/M12 A3019 RMK A01 T10721122  RH  068%=      5-min Rain = 0
KEA1 121144Z 19008KT M07/M12 A3019 RMK A01 T10721122  RH  068%=      5-min Rain = 0
KEA1 121145Z 19008KT M07/M12 A3019 RMK A01 T10711121  RH  068%=      5-min Rain = 0
KEA1 121146Z 19008KT M07/M12 A3019 RMK A01 T10711121  RH  068%=      5-min Rain = 0
KEA1 121147Z 19008KT M07/M12 A3019 RMK A01 T10711120  RH  068%=      5-min Rain = 0
KEA1 121148Z 19007KT M07/M12 A3019 RMK A01 T10701120  RH  067%=      5-min Rain = 0
KEA1 121149Z 19007KT M07/M12 A3019 RMK A01 T10691120  RH  067%=      5-min Rain = 0
KEA1 121150Z 19007KT M07/M12 A3019 RMK A01 T10681119  RH  067%=      5-min Rain = 0
KEA1 121151Z 20007KT M07/M12 A3019 RMK A01 T10671119  RH  067%=      5-min Rain = 0
KEA1 121152Z 20007KT M07/M12 A3019 RMK A01 T10661119  RH  066%=      5-min Rain = 0
KEA1 121153Z 20007KT M07/M12 A3019 RMK A01 T10661119  RH  066%=      5-min Rain = 0
KEA1 121154Z 20007KT M06/M12 A302 RMK A01 T10641118  RH  066%=      5-min Rain = 0
KEA1 121155Z 20007KT M06/M12 A302 RMK A01 T10631117  RH  065%=      5-min Rain = 0
KEA1 121156Z 20007KT M06/M12 A302 RMK A01 T10611118  RH  065%=      5-min Rain = 0
KEA1 121157Z 20007KT M06/M12 A302 RMK A01 T10601117  RH  064%=      5-min Rain = 0
KEA1 121158Z 20007KT M06/M12 A302 RMK A01 T10601117  RH  064%=      5-min Rain = 0
KEA1 121159Z 21008KT M06/M12 A302 RMK A01 T10591117  RH  063%=      5-min Rain = 0
KEA1 121200Z 21007KT M06/M12 A302 RMK A01 T10581117  RH  063%=      5-min Rain = 0
KEA1 121201Z 21008KT M06/M12 A302 RMK A01 T10571117  RH  063%=      5-min Rain = 0
KEA1 121202Z 21007KT M06/M12 A302 RMK A01 T10561116  RH  063%=      5-min Rain = 0
KEA1 121203Z 21008KT M05/M11 A302 RMK A01 T10531114  RH  062%=      5-min Rain = 0
KEA1 121204Z 21007KT M05/M11 A302 RMK A01 T10511114  RH  061%=      5-min Rain = 0
KEA1 121205Z 21007KT M05/M11 A302 RMK A01 T10501113  RH  061%=      5-min Rain = 0
KEA1 121206Z 21007KT M05/M11 A302 RMK A01 T10481112  RH  061%=      5-min Rain = 0
KEA1 121207Z 21007KT M05/M11 A302 RMK A01 T10481113  RH  060%=      5-min Rain = 0
KEA1 121208Z 21007KT M05/M11 A302 RMK A01 T10481113  RH  060%=      5-min Rain = 0
KEA1 121209Z 20006KT M05/M11 A302 RMK A01 T10481114  RH  060%=      5-min Rain = 0
KEA1 121210Z 20006KT M05/M11 A302 RMK A01 T10481114  RH  060%=      5-min Rain = 0
KEA1 121211Z 20007KT M05/M11 A302 RMK A01 T10481114  RH  060%=      5-min Rain = 0
KEA1 121212Z 21006KT M05/M11 A302 RMK A01 T10481114  RH  060%=      5-min Rain = 0
KEA1 121213Z 20006KT M05/M11 A302 RMK A01 T10481114  RH  060%=      5-min Rain = 0
KEA1 121214Z 20006KT M05/M11 A302 RMK A01 T10491114  RH  060%=      5-min Rain = 0
KEA1 121215Z 20006KT M05/M11 A302 RMK A01 T10491114  RH  060%=      5-min Rain = 0
KEA1 121216Z 20006KT M05/M11 A302 RMK A01 T10491114  RH  060%=      5-min Rain = 0
KEA1 121217Z 20005KT M05/M11 A302 RMK A01 T10491114  RH  060%=      5-min Rain = 0
KEA1 121218Z 19005KT M05/M11 A302 RMK A01 T10491114  RH  060%=      5-min Rain = 0
KEA1 121219Z 20005KT M05/M11 A302 RMK A01 T10491114  RH  060%=      5-min Rain = 0
KEA1 121220Z 20004KT M05/M11 A302 RMK A01 T10491114  RH  060%=      5-min Rain = 0
KEA1 121221Z 20004KT M05/M11 A302 RMK A01 T10491114  RH  060%=      5-min Rain = 0
KEA1 121222Z 20004KT M05/M11 A302 RMK A01 T10491114  RH  060%=      5-min Rain = 0
KEA1 121223Z 20004KT M05/M11 A302 RMK A01 T10481114  RH  060%=      5-min Rain = 0
KEA1 121224Z 20005KT M05/M12 A302 RMK A01 T10491115  RH  060%=      5-min Rain = 0
KEA1 121225Z 20005KT M05/M12 A302 RMK A01 T10491115  RH  060%=      5-min Rain = 0
KEA1 121226Z 20005KT M05/M12 A302 RMK A01 T10501116  RH  060%=      5-min Rain = 0
KEA1 121227Z 20006KT M05/M12 A302 RMK A01 T10511115  RH  060%=      5-min Rain = 0
KEA1 121228Z 20006KT M05/M12 A302 RMK A01 T10521116  RH  061%=      5-min Rain = 0
KEA1 121229Z 19007KT M05/M12 A302 RMK A01 T10531117  RH  061%=      5-min Rain = 0
KEA1 121230Z 19007KT M06/M12 A302 RMK A01 T10561118  RH  061%=      5-min Rain = 0
KEA1 121231Z 19008KT M06/M12 A302 RMK A01 T10591120  RH  062%=      5-min Rain = 0
KEA1 121232Z 19008KT M06/M12 A302 RMK A01 T10631123  RH  062%=      5-min Rain = 0
KEA1 121233Z 19008KT M07/M13 A302 RMK A01 T10681127  RH  063%=      5-min Rain = 0
KEA1 121234Z 20008KT M07/M13 A302 RMK A01 T10711127  RH  064%=      5-min Rain = 0
KEA1 121235Z 20008KT M07/M13 A302 RMK A01 T10731126  RH  066%=      5-min Rain = 0
KEA1 121236Z 20008KT M07/M12 A302 RMK A01 T10721123  RH  067%=      5-min Rain = 0
KEA1 121237Z 20008KT M07/M12 A302 RMK A01 T10701121  RH  067%=      5-min Rain = 0
KEA1 121238Z 20008KT M07/M12 A302 RMK A01 T10681119  RH  067%=      5-min Rain = 0
KEA1 121239Z 20008KT M07/M12 A302 RMK A01 T10671119  RH  067%=      5-min Rain = 0
KEA1 121240Z 20008KT M07/M12 A302 RMK A01 T10661118  RH  066%=      5-min Rain = 0
KEA1 121241Z 20008KT M07/M12 A302 RMK A01 T10651118  RH  066%=      5-min Rain = 0
KEA1 121242Z 20008KT M07/M12 A302 RMK A01 T10651119  RH  066%=      5-min Rain = 0
KEA1 121243Z 20009KT M06/M12 A302 RMK A01 T10641118  RH  066%=      5-min Rain = 0
KEA1 121244Z 20008KT M07/M12 A302 RMK A01 T10651118  RH  066%=      5-min Rain = 0
KEA1 121245Z 20008KT M06/M12 A302 RMK A01 T10641118  RH  066%=      5-min Rain = 0
KEA1 121246Z 20008KT M06/M12 A302 RMK A01 T10641118  RH  066%=      5-min Rain = 0
KEA1 121247Z 19008KT M06/M12 A302 RMK A01 T10641118  RH  066%=      5-min Rain = 0
KEA1 121248Z 19009KT M06/M12 A302 RMK A01 T10641118  RH  065%=      5-min Rain = 0
KEA1 121249Z 19009KT M07/M12 A302 RMK A01 T10651119  RH  065%=      5-min Rain = 0
KEA1 121250Z 20009KT M07/M12 A302 RMK A01 T10651119  RH  066%=      5-min Rain = 0
KEA1 121251Z 20009KT M07/M12 A302 RMK A01 T10651119  RH  066%=      5-min Rain = 0
KEA1 121252Z 20008KT M07/M12 A302 RMK A01 T10651119  RH  066%=      5-min Rain = 0
KEA1 121253Z 20008KT M07/M12 A302 RMK A01 T10661119  RH  066%=      5-min Rain = 0
KEA1 121254Z 20008KT M07/M12 A302 RMK A01 T10661119  RH  066%=      5-min Rain = 0
KEA1 121255Z 20008KT M07/M12 A302 RMK A01 T10661120  RH  066%=      5-min Rain = 0
KEA1 121256Z 20009KT M07/M12 A302 RMK A01 T10661120  RH  066%=      5-min Rain = 0
KEA1 121257Z 20010KT M07/M12 A302 RMK A01 T10661120  RH  066%=      5-min Rain = 0
KEA1 121258Z 20010KT M07/M12 A302 RMK A01 T10671120  RH  066%=      5-min Rain = 0
KEA1 121259Z 20010KT M07/M12 A302 RMK A01 T10671121  RH  066%=      5-min Rain = 0
KEA1 121300Z 20010KT M07/M12 A302 RMK A01 T10681121  RH  066%=      5-min Rain = 0
KEA1 121301Z 19010KT M07/M12 A302 RMK A01 T10681121  RH  066%=      5-min Rain = 0
KEA1 121302Z 19009KT M07/M12 A302 RMK A01 T10691121  RH  066%=      5-min Rain = 0
KEA1 121303Z 19009KT M07/M12 A302 RMK A01 T10691121  RH  066%=      5-min Rain = 0
KEA1 121304Z 19008KT M07/M12 A302 RMK A01 T10691121  RH  067%=      5-min Rain = 0
KEA1 121305Z 19008KT M07/M12 A302 RMK A01 T10691121  RH  067%=      5-min Rain = 0
KEA1 121306Z 19008KT M07/M12 A302 RMK A01 T10691120  RH  067%=      5-min Rain = 0
KEA1 121307Z 18008KT M07/M12 A302 RMK A01 T10691120  RH  067%=      5-min Rain = 0
KEA1 121308Z 18008KT M07/M12 A302 RMK A01 T10691121  RH  067%=      5-min Rain = 0
KEA1 121309Z 18009KT M07/M12 A302 RMK A01 T10691121  RH  066%=      5-min Rain = 0
KEA1 121310Z 18009KT M07/M12 A302 RMK A01 T10691122  RH  066%=      5-min Rain = 0
KEA1 121311Z 18009KT M07/M12 A302 RMK A01 T10691122  RH  066%=      5-min Rain = 0
KEA1 121312Z 18009KT M07/M12 A302 RMK A01 T10701121  RH  067%=      5-min Rain = 0
KEA1 121313Z 18009KT M07/M12 A302 RMK A01 T10691121  RH  067%=      5-min Rain = 0
KEA1 121314Z 18009KT M07/M12 A302 RMK A01 T10691121  RH  067%=      5-min Rain = 0
KEA1 121315Z 18009KT M07/M12 A302 RMK A01 T10671119  RH  067%=      5-min Rain = 0
KEA1 121316Z 18008KT M07/M12 A302 RMK A01 T10661118  RH  067%=      5-min Rain = 0
KEA1 121317Z 18008KT M07/M12 A302 RMK A01 T10651117  RH  066%=      5-min Rain = 0
KEA1 121318Z 18008KT M06/M12 A302 RMK A01 T10631116  RH  066%=      5-min Rain = 0
KEA1 121319Z 18008KT M06/M12 A302 RMK A01 T10611115  RH  066%=      5-min Rain = 0
KEA1 121320Z 18009KT M06/M12 A302 RMK A01 T10601115  RH  065%=      5-min Rain = 0
KEA1 121321Z 19008KT M06/M12 A302 RMK A01 T10591115  RH  065%=      5-min Rain = 0
KEA1 121322Z 18009KT M06/M11 A302 RMK A01 T10581114  RH  065%=      5-min Rain = 0
KEA1 121323Z 18009KT M06/M11 A302 RMK A01 T10581114  RH  064%=      5-min Rain = 0
KEA1 121324Z 19009KT M06/M11 A302 RMK A01 T10581114  RH  064%=      5-min Rain = 0
KEA1 121325Z 18008KT M06/M11 A302 RMK A01 T10571114  RH  064%=      5-min Rain = 0
KEA1 121326Z 18009KT M06/M12 A302 RMK A01 T10571115  RH  064%=      5-min Rain = 0
KEA1 121327Z 18008KT M06/M11 A302 RMK A01 T10561114  RH  064%=      5-min Rain = 0
KEA1 121328Z 18007KT M06/M11 A302 RMK A01 T10561114  RH  064%=      5-min Rain = 0
KEA1 121329Z 18007KT M06/M11 A302 RMK A01 T10561114  RH  063%=      5-min Rain = 0
KEA1 121330Z 18007KT M05/M11 A302 RMK A01 T10541114  RH  063%=      5-min Rain = 0
KEA1 121331Z 17008KT M05/M12 A302 RMK A01 T10541115  RH  063%=      5-min Rain = 0
KEA1 121332Z 17007KT M05/M12 A302 RMK A01 T10541115  RH  062%=      5-min Rain = 0
KEA1 121333Z 17007KT M05/M12 A302 RMK A01 T10541115  RH  062%=      5-min Rain = 0
KEA1 121334Z 17007KT M05/M12 A302 RMK A01 T10541115  RH  062%=      5-min Rain = 0
KEA1 121335Z 17007KT M06/M12 A302 RMK A01 T10551116  RH  062%=      5-min Rain = 0
KEA1 121336Z 17008KT M06/M12 A302 RMK A01 T10551116  RH  062%=      5-min Rain = 0
KEA1 121337Z 17008KT M06/M12 A3019 RMK A01 T10551116  RH  062%=      5-min Rain = 0
KEA1 121338Z 17008KT M06/M12 A3019 RMK A01 T10561117  RH  062%=      5-min Rain = 0
KEA1 121339Z 18008KT M06/M12 A3019 RMK A01 T10561117  RH  062%=      5-min Rain = 0
KEA1 121340Z 18009KT M06/M12 A3019 RMK A01 T10571117  RH  062%=      5-min Rain = 0
KEA1 121341Z 18009KT M06/M12 A3019 RMK A01 T10561116  RH  063%=      5-min Rain = 0
KEA1 121342Z 18009KT M06/M12 A3019 RMK A01 T10561116  RH  063%=      5-min Rain = 0
KEA1 121343Z 18009KT M06/M12 A3019 RMK A01 T10551115  RH  063%=      5-min Rain = 0
KEA1 121344Z 18009KT M05/M11 A3019 RMK A01 T10541114  RH  063%=      5-min Rain = 0
KEA1 121345Z 18009KT M05/M11 A3019 RMK A01 T10531114  RH  062%=      5-min Rain = 0
KEA1 121346Z 18009KT M05/M11 A3019 RMK A01 T10531114  RH  062%=      5-min Rain = 0
KEA1 121347Z 18009KT M05/M11 A3019 RMK A01 T10531114  RH  062%=      5-min Rain = 0
KEA1 121348Z 18008KT M05/M11 A3019 RMK A01 T10511113  RH  062%=      5-min Rain = 0
KEA1 121349Z 18008KT M05/M11 A3019 RMK A01 T10511113  RH  062%=      5-min Rain = 0
KEA1 121350Z 18008KT M05/M11 A3019 RMK A01 T10501113  RH  061%=      5-min Rain = 0
KEA1 121351Z 18008KT M05/M11 A3019 RMK A01 T10501113  RH  061%=      5-min Rain = 0
KEA1 121352Z 18007KT M05/M11 A3019 RMK A01 T10511113  RH  061%=      5-min Rain = 0
KEA1 121353Z 18007KT M05/M11 A3019 RMK A01 T10501113  RH  062%=      5-min Rain = 0
KEA1 121354Z 18008KT M05/M11 A3019 RMK A01 T10501113  RH  061%=      5-min Rain = 0
KEA1 121355Z 18008KT M05/M11 A3019 RMK A01 T10511113  RH  061%=      5-min Rain = 0
KEA1 121356Z 18008KT M05/M11 A3019 RMK A01 T10501113  RH  062%=      5-min Rain = 0
KEA1 121357Z 18008KT M05/M11 A3019 RMK A01 T10501113  RH  061%=      5-min Rain = 0
KEA1 121358Z 18008KT M05/M11 A3019 RMK A01 T10501113  RH  061%=      5-min Rain = 0
KEA1 121359Z 18009KT M05/M11 A3019 RMK A01 T10501113  RH  062%=      5-min Rain = 0
KEA1 121400Z 18009KT M05/M11 A3019 RMK A01 T10501113  RH  061%=      5-min Rain = 0
KEA1 121401Z 19008KT M05/M11 A3019 RMK A01 T10491112  RH  061%=      5-min Rain = 0
KEA1 121402Z 19008KT M05/M11 A3019 RMK A01 T10491112  RH  061%=      5-min Rain = 0
KEA1 121403Z 19007KT M05/M11 A3019 RMK A01 T10481112  RH  061%=      5-min Rain = 0
KEA1 121404Z 19007KT M05/M11 A302 RMK A01 T10481113  RH  060%=      5-min Rain = 0
KEA1 121405Z 19007KT M05/M11 A302 RMK A01 T10471113  RH  060%=      5-min Rain = 0
KEA1 121406Z 19006KT M05/M11 A302 RMK A01 T10471113  RH  060%=      5-min Rain = 0
KEA1 121407Z 19006KT M05/M11 A302 RMK A01 T10471113  RH  060%=      5-min Rain = 0
KEA1 121408Z 19006KT M05/M11 A302 RMK A01 T10461113  RH  060%=      5-min Rain = 0
KEA1 121409Z 18006KT M05/M11 A302 RMK A01 T10461114  RH  059%=      5-min Rain = 0
KEA1 121410Z 18006KT M05/M11 A302 RMK A01 T10461114  RH  059%=      5-min Rain = 0
KEA1 121411Z 18006KT M05/M11 A302 RMK A01 T10461114  RH  059%=      5-min Rain = 0
KEA1 121412Z 19007KT M05/M11 A302 RMK A01 T10451113  RH  059%=      5-min Rain = 0
KEA1 121413Z 19007KT M05/M11 A302 RMK A01 T10451113  RH  059%=      5-min Rain = 0
KEA1 121414Z 19007KT M04/M11 A302 RMK A01 T10441113  RH  059%=      5-min Rain = 0
KEA1 121415Z 19007KT M04/M11 A302 RMK A01 T10421112  RH  058%=      5-min Rain = 0
KEA1 121416Z 18007KT M04/M11 A302 RMK A01 T10411112  RH  058%=      5-min Rain = 0
KEA1 121417Z 18007KT M04/M11 A302 RMK A01 T10401112  RH  057%=      5-min Rain = 0
KEA1 121418Z 17007KT M04/M11 A302 RMK A01 T10391111  RH  057%=      5-min Rain = 0
KEA1 121419Z 17007KT M04/M11 A302 RMK A01 T10391112  RH  057%=      5-min Rain = 0
KEA1 121420Z 18008KT M04/M11 A302 RMK A01 T10381111  RH  057%=      5-min Rain = 0
KEA1 121421Z 18008KT M04/M11 A302 RMK A01 T10381111  RH  057%=      5-min Rain = 0
KEA1 121422Z 19008KT M04/M11 A302 RMK A01 T10371111  RH  057%=      5-min Rain = 0
KEA1 121423Z 19008KT M04/M11 A3021 RMK A01 T10351110  RH  056%=      5-min Rain = 0
KEA1 121424Z 19008KT M03/M11 A3021 RMK A01 T10341110  RH  056%=      5-min Rain = 0
KEA1 121425Z 19007KT M03/M11 A302 RMK A01 T10341110  RH  055%=      5-min Rain = 0
KEA1 121426Z 19008KT M03/M11 A302 RMK A01 T10331110  RH  055%=      5-min Rain = 0
KEA1 121427Z 19008KT M03/M11 A302 RMK A01 T10321110  RH  055%=      5-min Rain = 0
KEA1 121428Z 19009KT M03/M11 A302 RMK A01 T10301109  RH  055%=      5-min Rain = 0
KEA1 121429Z 20009KT M03/M11 A302 RMK A01 T10291109  RH  054%=      5-min Rain = 0
KEA1 121430Z 20008KT M03/M11 A302 RMK A01 T10281109  RH  054%=      5-min Rain = 0
KEA1 121431Z 20009KT M03/M11 A3021 RMK A01 T10261109  RH  053%=      5-min Rain = 0
KEA1 121432Z 20008KT M03/M11 A3021 RMK A01 T10251109  RH  053%=      5-min Rain = 0
KEA1 121433Z 20008KT M03/M11 A3021 RMK A01 T10251109  RH  052%=      5-min Rain = 0
KEA1 121434Z 20009KT M02/M11 A3021 RMK A01 T10241108  RH  052%=      5-min Rain = 0
KEA1 121435Z 18010KT M02/M11 A3021 RMK A01 T10221108  RH  052%=      5-min Rain = 0
KEA1 121436Z 19010KT M02/M11 A3021 RMK A01 T10211107  RH  052%=      5-min Rain = 0
KEA1 121437Z 19010KT M02/M11 A3021 RMK A01 T10191106  RH  051%=      5-min Rain = 0
KEA1 121438Z 19010KT M02/M11 A3021 RMK A01 T10171106  RH  051%=      5-min Rain = 0
KEA1 121439Z 19011KT M02/M11 A3021 RMK A01 T10161106  RH  050%=      5-min Rain = 0
KEA1 121440Z 19010KT M01/M11 A3021 RMK A01 T10141106  RH  050%=      5-min Rain = 0
KEA1 121441Z 20009KT M01/M11 A3021 RMK A01 T10131106  RH  049%=      5-min Rain = 0
KEA1 121442Z 20010KT M01/M11 A3021 RMK A01 T10121106  RH  049%=      5-min Rain = 0
KEA1 121443Z 20010KT M01/M11 A3021 RMK A01 T10111106  RH  048%=      5-min Rain = 0
KEA1 121444Z 20009KT M01/M11 A3021 RMK A01 T10091106  RH  048%=      5-min Rain = 0
KEA1 121445Z 20009KT M01/M11 A3021 RMK A01 T10091107  RH  048%=      5-min Rain = 0
KEA1 121446Z 19008KT M01/M11 A3021 RMK A01 T10091106  RH  048%=      5-min Rain = 0
KEA1 121447Z 18009KT M01/M11 A3021 RMK A01 T10091107  RH  048%=      5-min Rain = 0
KEA1 121448Z 18010KT M01/M11 A3021 RMK A01 T10111108  RH  048%=      5-min Rain = 0
KEA1 121449Z 18009KT M01/M11 A3021 RMK A01 T10111108  RH  048%=      5-min Rain = 0
KEA1 121450Z 19010KT M01/M11 A3021 RMK A01 T10121108  RH  048%=      5-min Rain = 0
KEA1 121451Z 19009KT M01/M11 A3021 RMK A01 T10121108  RH  048%=      5-min Rain = 0
KEA1 121452Z 19008KT M01/M11 A3022 RMK A01 T10121108  RH  048%=      5-min Rain = 0
KEA1 121453Z 19008KT M01/M11 A3022 RMK A01 T10121108  RH  048%=      5-min Rain = 0
KEA1 121454Z 19007KT M01/M11 A3022 RMK A01 T10121108  RH  048%=      5-min Rain = 0
KEA1 121455Z 19010KT M01/M11 A3022 RMK A01 T10111107  RH  048%=      5-min Rain = 0
KEA1 121456Z 19009KT M01/M11 A3022 RMK A01 T10101107  RH  048%=      5-min Rain = 0
KEA1 121457Z 19008KT M01/M11 A3022 RMK A01 T10101107  RH  048%=      5-min Rain = 0
KEA1 121458Z 19009KT M01/M11 A3022 RMK A01 T10091107  RH  047%=      5-min Rain = 0
KEA1 121459Z 20007KT M01/M11 A3022 RMK A01 T10071107  RH  047%=      5-min Rain = 0
KEA1 121500Z 21006KT M01/M11 A3022 RMK A01 T10071107  RH  047%=      5-min Rain = 0
KEA1 121501Z 20006KT M01/M11 A3022 RMK A01 T10061107  RH  047%=      5-min Rain = 0
KEA1 121502Z 20006KT M01/M11 A3022 RMK A01 T10061107  RH  047%=      5-min Rain = 0
KEA1 121503Z 20008KT M01/M11 A3022 RMK A01 T10061107  RH  046%=      5-min Rain = 0
KEA1 121504Z 19007KT M01/M11 A3023 RMK A01 T10061107  RH  046%=      5-min Rain = 0
KEA1 121505Z 20007KT M01/M11 A3023 RMK A01 T10051107  RH  046%=      5-min Rain = 0
KEA1 121506Z 20009KT M01/M11 A3022 RMK A01 T10051107  RH  046%=      5-min Rain = 0
KEA1 121507Z 19008KT M01/M11 A3023 RMK A01 T10051107  RH  046%=      5-min Rain = 0
KEA1 121508Z 20008KT M01/M11 A3023 RMK A01 T10051107  RH  046%=      5-min Rain = 0
KEA1 121509Z 19009KT M00/M11 A3023 RMK A01 T10041107  RH  046%=      5-min Rain = 0
KEA1 121510Z 19008KT M00/M11 A3023 RMK A01 T10041106  RH  046%=      5-min Rain = 0
KEA1 121511Z 19007KT M00/M11 A3022 RMK A01 T10041107  RH  046%=      5-min Rain = 0
KEA1 121512Z 19007KT M00/M11 A3022 RMK A01 T10041106  RH  046%=      5-min Rain = 0
KEA1 121513Z 18007KT M00/M11 A3022 RMK A01 T10041106  RH  046%=      5-min Rain = 0
KEA1 121514Z 18008KT M00/M11 A3022 RMK A01 T10031106  RH  046%=      5-min Rain = 0
KEA1 121515Z 18009KT M00/M11 A3022 RMK A01 T10021105  RH  046%=      5-min Rain = 0
KEA1 121516Z 18009KT M00/M11 A3022 RMK A01 T10011106  RH  045%=      5-min Rain = 0
KEA1 121517Z 18007KT M00/M11 A3022 RMK A01 T10011106  RH  045%=      5-min Rain = 0
KEA1 121518Z 20007KT M00/M11 A3023 RMK A01 T10011106  RH  045%=      5-min Rain = 0
KEA1 121519Z 20007KT 00/11 A3022 RMK A01 T00-00-106  RH  045%=      5-min Rain = 0
KEA1 121520Z 19009KT 00/11 A3022 RMK A01 T00-00-106  RH  045%=      5-min Rain = 0
KEA1 121521Z 19010KT 00/M11 A3022 RMK A01 T00011106  RH  044%=      5-min Rain = 0
KEA1 121522Z 19009KT 00/M11 A3022 RMK A01 T00021106  RH  044%=      5-min Rain = 0
KEA1 121523Z 19010KT 00/M11 A3022 RMK A01 T00021106  RH  044%=      5-min Rain = 0
KEA1 121524Z 18011KT 00/M11 A3022 RMK A01 T00031107  RH  044%=      5-min Rain = 0
KEA1 121525Z 19010KT 00/M11 A3022 RMK A01 T00031107  RH  043%=      5-min Rain = 0
KEA1 121526Z 18010KT 01/M11 A3022 RMK A01 T00061105  RH  043%=      5-min Rain = 0
KEA1 121527Z 17011KT 01/M11 A3022 RMK A01 T00081105  RH  043%=      5-min Rain = 0
KEA1 121528Z 18012KT 01/M11 A3022 RMK A01 T00091106  RH  042%=      5-min Rain = 0
KEA1 121529Z 17011KT 01/M11 A3022 RMK A01 T00101107  RH  041%=      5-min Rain = 0
KEA1 121530Z 18011KT 01/M11 A3022 RMK A01 T00101107  RH  041%=      5-min Rain = 0
KEA1 121531Z 18011KT 01/M11 A3022 RMK A01 T00111107  RH  041%=      5-min Rain = 0
KEA1 121532Z 18013KT 01/M11 A3021 RMK A01 T00121106  RH  041%=      5-min Rain = 0
KEA1 121533Z 17015KT 01/M11 A3021 RMK A01 T00121108  RH  041%=      5-min Rain = 0
KEA1 121534Z 18011KT 01/M11 A3021 RMK A01 T00101109  RH  041%=      5-min Rain = 0
KEA1 121535Z 19014KT 01/M11 A3021 RMK A01 T00111107  RH  041%=      5-min Rain = 0
KEA1 121536Z 18017KT 01/M11 A3021 RMK A01 T00121107  RH  041%=      5-min Rain = 0
KEA1 121537Z 18017KT 01/M11 A302 RMK A01 T00111108  RH  040%=      5-min Rain = 0
KEA1 121538Z 18016KT 01/M11 A302 RMK A01 T00101109  RH  041%=      5-min Rain = 0
KEA1 121539Z 18017KT 01/M11 A302 RMK A01 T00101108  RH  041%=      5-min Rain = 0
KEA1 121540Z 18014KT 01/M11 A302 RMK A01 T00101108  RH  041%=      5-min Rain = 0
KEA1 121541Z 18017KT 01/M11 A302 RMK A01 T00121107  RH  041%=      5-min Rain = 0
KEA1 121542Z 18017KT 01/M11 A302 RMK A01 T00131108  RH  040%=      5-min Rain = 0
KEA1 121543Z 18015KT 01/M11 A302 RMK A01 T00121109  RH  040%=      5-min Rain = 0
KEA1 121544Z 17017KT 01/M11 A302 RMK A01 T00131109  RH  040%=      5-min Rain = 0
KEA1 121545Z 18018KT 01/M11 A302 RMK A01 T00121110  RH  040%=      5-min Rain = 0
KEA1 121546Z 17016KT 01/M11 A302 RMK A01 T00111109  RH  040%=      5-min Rain = 0
KEA1 121547Z 17016KT 01/M11 A302 RMK A01 T00111109  RH  040%=      5-min Rain = 0
KEA1 121548Z 17017KT 01/M11 A302 RMK A01 T00121109  RH  040%=      5-min Rain = 0
KEA1 121549Z 17016KT 01/M11 A302 RMK A01 T00121110  RH  040%=      5-min Rain = 0
KEA1 121550Z 17015KT 01/M11 A302 RMK A01 T00131109  RH  040%=      5-min Rain = 0
KEA1 121551Z 19015KT 01/M11 A302 RMK A01 T00141108  RH  040%=      5-min Rain = 0
KEA1 121552Z 18017G22KT 02/M11 A302 RMK A01 T00161108  RH  039%=      5-min Rain = 0
KEA1 121553Z 18020KT 02/M11 A302 RMK A01 T00161109  RH  039%=      5-min Rain = 0
KEA1 121554Z 18018KT 02/M11 A302 RMK A01 T00151110  RH  039%=      5-min Rain = 0
KEA1 121555Z 18020KT 02/M11 A302 RMK A01 T00151110  RH  039%=      5-min Rain = 0
KEA1 121556Z 18018KT 02/M11 A302 RMK A01 T00161110  RH  039%=      5-min Rain = 0
KEA1 121557Z 17018KT 02/M11 A302 RMK A01 T00171109  RH  038%=      5-min Rain = 0
KEA1 121558Z 18018KT 02/M11 A302 RMK A01 T00181110  RH  038%=      5-min Rain = 0
KEA1 121559Z 19015KT 02/M11 A302 RMK A01 T00191109  RH  038%=      5-min Rain = 0
KEA1 121600Z 18015KT 02/M11 A302 RMK A01 T00211109  RH  038%=      5-min Rain = 0
KEA1 121601Z 18016G22KT 02/M11 A302 RMK A01 T00221108  RH  037%=      5-min Rain = 0
KEA1 121602Z 18017KT 02/M11 A302 RMK A01 T00231110  RH  037%=      5-min Rain = 0
KEA1 121603Z 18019KT 02/M11 A302 RMK A01 T00211111  RH  037%=      5-min Rain = 0
KEA1 121604Z 18018KT 02/M11 A302 RMK A01 T00201111  RH  037%=      5-min Rain = 0
KEA1 121605Z 18020KT 02/M11 A302 RMK A01 T00191111  RH  037%=      5-min Rain = 0
KEA1 121606Z 18019KT 02/M11 A302 RMK A01 T00181111  RH  038%=      5-min Rain = 0
KEA1 121607Z 18019KT 02/M11 A302 RMK A01 T00191110  RH  038%=      5-min Rain = 0
KEA1 121608Z 18019KT 02/M11 A302 RMK A01 T00201111  RH  037%=      5-min Rain = 0
KEA1 121609Z 18019KT 02/M11 A3019 RMK A01 T00191111  RH  037%=      5-min Rain = 0
KEA1 121610Z 18018KT 02/M11 A3019 RMK A01 T00201110  RH  037%=      5-min Rain = 0
KEA1 121611Z 18018KT 02/M11 A302 RMK A01 T00201110  RH  037%=      5-min Rain = 0
KEA1 121612Z 18018KT 02/M11 A302 RMK A01 T00211110  RH  037%=      5-min Rain = 0
KEA1 121613Z 18019KT 02/M11 A3019 RMK A01 T00211109  RH  037%=      5-min Rain = 0
KEA1 121614Z 18020KT 02/M11 A3019 RMK A01 T00231109  RH  037%=      5-min Rain = 0
KEA1 121615Z 18019KT 02/M11 A3019 RMK A01 T00231110  RH  037%=      5-min Rain = 0
KEA1 121616Z 18018KT 02/M11 A3019 RMK A01 T00221110  RH  037%=      5-min Rain = 0
KEA1 121617Z 18017KT 02/M11 A3019 RMK A01 T00231109  RH  037%=      5-min Rain = 0
KEA1 121618Z 17018KT 03/M11 A3019 RMK A01 T00251109  RH  037%=      5-min Rain = 0
KEA1 121619Z 18018KT 03/M11 A3019 RMK A01 T00251109  RH  036%=      5-min Rain = 0
KEA1 121620Z 18018KT 03/M11 A3019 RMK A01 T00251109  RH  036%=      5-min Rain = 0
KEA1 121621Z 18018KT 03/M11 A3019 RMK A01 T00261109  RH  036%=      5-min Rain = 0
KEA1 121622Z 18019KT 03/M11 A3019 RMK A01 T00261110  RH  036%=      5-min Rain = 0
KEA1 121623Z 18017KT 03/M11 A3019 RMK A01 T00261110  RH  036%=      5-min Rain = 0
KEA1 121624Z 18019KT 03/M11 A3019 RMK A01 T00271109  RH  036%=      5-min Rain = 0
KEA1 121625Z 18017KT 03/M11 A3019 RMK A01 T00271109  RH  036%=      5-min Rain = 0
KEA1 121626Z 19017KT 03/M11 A3019 RMK A01 T00291108  RH  036%=      5-min Rain = 0
KEA1 121627Z 18017G23KT 03/M11 A3019 RMK A01 T00301109  RH  035%=      5-min Rain = 0
KEA1 121628Z 18021KT 03/M11 A3019 RMK A01 T00311110  RH  035%=      5-min Rain = 0
KEA1 121629Z 18021KT 03/M11 A3019 RMK A01 T00311111  RH  034%=      5-min Rain = 0
KEA1 121630Z 18023KT 03/M11 A3019 RMK A01 T00311111  RH  034%=      5-min Rain = 0
KEA1 121631Z 18022KT 03/M11 A3019 RMK A01 T00311112  RH  034%=      5-min Rain = 0
KEA1 121632Z 17019KT 03/M11 A3019 RMK A01 T00311111  RH  035%=      5-min Rain = 0
KEA1 121633Z 18020KT 03/M11 A3019 RMK A01 T00331109  RH  034%=      5-min Rain = 0
KEA1 121634Z 19019KT 04/M11 A3018 RMK A01 T00351109  RH  034%=      5-min Rain = 0
KEA1 121635Z 18015KT 04/M11 A3018 RMK A01 T00371108  RH  034%=      5-min Rain = 0
KEA1 121636Z 17019G26KT 04/M11 A3018 RMK A01 T00401106  RH  033%=      5-min Rain = 0
KEA1 121637Z 18023KT 04/M11 A3018 RMK A01 T00391110  RH  033%=      5-min Rain = 0
KEA1 121638Z 18022KT 03/M11 A3018 RMK A01 T00341112  RH  033%=      5-min Rain = 0
KEA1 121639Z 18021KT 03/M11 A3018 RMK A01 T00331112  RH  034%=      5-min Rain = 0
KEA1 121640Z 19021KT 03/M11 A3018 RMK A01 T00321111  RH  034%=      5-min Rain = 0
KEA1 121641Z 18016KT 03/M11 A3018 RMK A01 T00321110  RH  034%=      5-min Rain = 0
KEA1 121642Z 18018G23KT 04/M11 A3018 RMK A01 T00351108  RH  034%=      5-min Rain = 0
KEA1 121643Z 18021KT 04/M11 A3018 RMK A01 T00361108  RH  034%=      5-min Rain = 0
KEA1 121644Z 18020KT 04/M11 A3018 RMK A01 T00361110  RH  034%=      5-min Rain = 0
KEA1 121645Z 18019KT 04/M11 A3018 RMK A01 T00351110  RH  034%=      5-min Rain = 0
KEA1 121646Z 18019KT 04/M11 A3017 RMK A01 T00381108  RH  034%=      5-min Rain = 0
KEA1 121647Z 19020KT 04/M11 A3017 RMK A01 T00381108  RH  033%=      5-min Rain = 0
KEA1 121648Z 18023KT 04/M11 A3017 RMK A01 T00391108  RH  033%=      5-min Rain = 0
KEA1 121649Z 18023KT 04/M11 A3017 RMK A01 T00391108  RH  033%=      5-min Rain = 0
KEA1 121650Z 19020G25KT 04/M11 A3017 RMK A01 T00401107  RH  033%=      5-min Rain = 0
KEA1 121651Z 18016KT 04/M11 A3017 RMK A01 T00411107  RH  033%=      5-min Rain = 0
KEA1 121652Z 18017G23KT 05/M10 A3017 RMK A01 T00461103  RH  033%=      5-min Rain = 0
KEA1 121653Z 19017KT 05/M11 A3016 RMK A01 T00461106  RH  032%=      5-min Rain = 0
KEA1 121654Z 18019G24KT 05/M11 A3016 RMK A01 T00461105  RH  032%=      5-min Rain = 0
KEA1 121655Z 18021G27KT 05/M11 A3016 RMK A01 T00471106  RH  032%=      5-min Rain = 0
KEA1 121656Z 17021KT 05/M11 A3016 RMK A01 T00451108  RH  032%=      5-min Rain = 0
KEA1 121657Z 18020KT 04/M11 A3016 RMK A01 T00441108  RH  032%=      5-min Rain = 0
KEA1 121658Z 18016G22KT 05/M11 A3016 RMK A01 T00451106  RH  033%=      5-min Rain = 0
KEA1 121659Z 18022KT 05/M10 A3016 RMK A01 T00491104  RH  032%=      5-min Rain = 0
KEA1 121700Z 18021KT 05/M11 A3016 RMK A01 T00461109  RH  032%=      5-min Rain = 0
KEA1 121701Z 17019G25KT 04/M11 A3016 RMK A01 T00441108  RH  032%=      5-min Rain = 0
KEA1 121702Z 18020KT 04/M11 A3016 RMK A01 T00431108  RH  032%=      5-min Rain = 0
KEA1 121703Z 18022KT 04/M11 A3016 RMK A01 T00441107  RH  032%=      5-min Rain = 0
KEA1 121704Z 18022KT 04/M11 A3016 RMK A01 T00431109  RH  032%=      5-min Rain = 0
KEA1 121705Z 18019KT 04/M11 A3016 RMK A01 T00411110  RH  032%=      5-min Rain = 0
KEA1 121706Z 18020KT 04/M11 A3016 RMK A01 T00411109  RH  033%=      5-min Rain = 0
KEA1 121707Z 18019KT 04/M11 A3016 RMK A01 T00411109  RH  033%=      5-min Rain = 0
KEA1 121708Z 18018KT 04/M11 A3016 RMK A01 T00421108  RH  033%=      5-min Rain = 0
KEA1 121709Z 19018KT 04/M11 A3016 RMK A01 T00431107  RH  033%=      5-min Rain = 0
KEA1 121710Z 18018KT 04/M11 A3016 RMK A01 T00431107  RH  033%=      5-min Rain = 0
KEA1 121711Z 19021KT 04/M11 A3016 RMK A01 T00421108  RH  033%=      5-min Rain = 0
KEA1 121712Z 18018KT 04/M11 A3016 RMK A01 T00431108  RH  033%=      5-min Rain = 0
KEA1 121713Z 18016KT 04/M11 A3017 RMK A01 T00431107  RH  033%=      5-min Rain = 0
KEA1 121714Z 19017KT 04/M11 A3017 RMK A01 T00431108  RH  033%=      5-min Rain = 0
KEA1 121715Z 19015KT 04/M11 A3017 RMK A01 T00431108  RH  032%=      5-min Rain = 0
KEA1 121716Z 19012G17KT 04/M11 A3018 RMK A01 T00441107  RH  033%=      5-min Rain = 0
KEA1 121717Z 17010KT 05/M11 A3019 RMK A01 T00461106  RH  032%=      5-min Rain = 0
KEA1 121718Z 17011KT 05/M11 A302 RMK A01 T00461107  RH  032%=      5-min Rain = 0
KEA1 121719Z 17011KT 05/M11 A302 RMK A01 T00461107  RH  032%=      5-min Rain = 0
KEA1 121720Z 16010KT 05/M11 A302 RMK A01 T00471106  RH  032%=      5-min Rain = 0
KEA1 121721Z 18013KT 05/M11 A302 RMK A01 T00491105  RH  032%=      5-min Rain = 0
KEA1 121722Z 18011KT 05/M11 A3019 RMK A01 T00491107  RH  031%=      5-min Rain = 0
KEA1 121723Z 17013KT 05/M11 A3019 RMK A01 T00491107  RH  031%=      5-min Rain = 0
KEA1 121724Z 17013KT 05/M11 A3019 RMK A01 T00501106  RH  031%=      5-min Rain = 0
KEA1 121725Z 16012KT 05/M11 A3019 RMK A01 T00501106  RH  031%=      5-min Rain = 0
KEA1 121726Z 17014KT 05/M11 A3019 RMK A01 T00511106  RH  031%=      5-min Rain = 0
KEA1 121727Z 17013KT 05/M11 A3019 RMK A01 T00521106  RH  031%=      5-min Rain = 0
KEA1 121728Z 17013KT 05/M11 A3019 RMK A01 T00531105  RH  031%=      5-min Rain = 0
KEA1 121729Z 18015KT 05/M11 A3019 RMK A01 T00541105  RH  031%=      5-min Rain = 0
KEA1 121730Z 18013KT 06/M10 A3018 RMK A01 T00561104  RH  031%=      5-min Rain = 0
KEA1 121731Z 18016KT 06/M10 A3018 RMK A01 T00591103  RH  030%=      5-min Rain = 0
KEA1 121732Z 18013KT 06/M11 A3018 RMK A01 T00581105  RH  030%=      5-min Rain = 0
KEA1 121733Z 18014KT 06/M11 A3018 RMK A01 T00571106  RH  030%=      5-min Rain = 0
KEA1 121734Z 19012KT 06/M11 A3018 RMK A01 T00551106  RH  030%=      5-min Rain = 0
KEA1 121735Z 17012KT 06/M10 A3018 RMK A01 T00561104  RH  030%=      5-min Rain = 0
KEA1 121736Z 17012KT 06/M10 A3018 RMK A01 T00581104  RH  030%=      5-min Rain = 0
KEA1 121737Z 18010KT 06/M11 A3018 RMK A01 T00591105  RH  030%=      5-min Rain = 0
KEA1 121738Z 18013KT 06/M10 A3018 RMK A01 T00601104  RH  030%=      5-min Rain = 0
KEA1 121739Z 18012KT 06/M11 A3018 RMK A01 T00601105  RH  029%=      5-min Rain = 0
KEA1 121740Z 17014KT 06/M11 A3018 RMK A01 T00601105  RH  029%=      5-min Rain = 0
KEA1 121741Z 18012KT 06/M10 A3018 RMK A01 T00611104  RH  030%=      5-min Rain = 0
KEA1 121742Z 17014KT 06/M10 A3017 RMK A01 T00641103  RH  029%=      5-min Rain = 0
KEA1 121743Z 18012KT 07/M10 A3018 RMK A01 T00681101  RH  029%=      5-min Rain = 0
KEA1 121744Z 17016KT 07/M10 A3017 RMK A01 T00691103  RH  028%=      5-min Rain = 0
KEA1 121745Z 18014KT 07/M11 A3017 RMK A01 T00661105  RH  028%=      5-min Rain = 0
KEA1 121746Z 18013KT 07/M10 A3017 RMK A01 T00651104  RH  029%=      5-min Rain = 0
KEA1 121747Z 18014KT 07/M10 A3017 RMK A01 T00681102  RH  028%=      5-min Rain = 0
KEA1 121748Z 18014KT 07/M11 A3017 RMK A01 T00681105  RH  028%=      5-min Rain = 0
KEA1 121749Z 17013KT 07/M11 A3017 RMK A01 T00661106  RH  028%=      5-min Rain = 0
KEA1 121750Z 17012KT 07/M10 A3017 RMK A01 T00671104  RH  028%=      5-min Rain = 0
KEA1 121751Z 18013KT 07/M10 A3016 RMK A01 T00721101  RH  028%=      5-min Rain = 0
KEA1 121752Z 17015KT 07/M10 A3017 RMK A01 T00721103  RH  027%=      5-min Rain = 0
KEA1 121753Z 18015KT 07/M10 A3016 RMK A01 T00731103  RH  028%=      5-min Rain = 0
KEA1 121754Z 17013KT 07/M10 A3016 RMK A01 T00711104  RH  028%=      5-min Rain = 0
KEA1 121755Z 17014KT 07/M10 A3016 RMK A01 T00731100  RH  028%=      5-min Rain = 0
KEA1 121756Z 17016KT 08/M10 A3016 RMK A01 T00771100  RH  027%=      5-min Rain = 0
KEA1 121757Z 18014KT 08/M10 A3016 RMK A01 T00751102  RH  027%=      5-min Rain = 0
KEA1 121758Z 17013KT 07/M10 A3016 RMK A01 T00741103  RH  027%=      5-min Rain = 0
KEA1 121759Z 17012KT 08/M10 A3016 RMK A01 T00751102  RH  027%=      5-min Rain = 0
KEA1 121800Z 19014KT 08/M10 A3016 RMK A01 T00771100  RH  027%=      5-min Rain = 0
KEA1 121801Z 20012KT 08/M10 A3016 RMK A01 T00791099  RH  027%=      5-min Rain = 0
KEA1 121802Z 18010KT 08/M10 A3016 RMK A01 T00811099  RH  027%=      5-min Rain = 0
KEA1 121803Z 17012KT 08/M10 A3016 RMK A01 T00801101  RH  026%=      5-min Rain = 0
KEA1 121804Z 18013KT 08/M10 A3016 RMK A01 T00771103  RH  027%=      5-min Rain = 0
KEA1 121805Z 19011KT 08/M10 A3016 RMK A01 T00781101  RH  027%=      5-min Rain = 0
KEA1 121806Z 18012KT 08/M10 A3015 RMK A01 T00801100  RH  027%=      5-min Rain = 0
KEA1 121807Z 19015KT 08/M10 A3015 RMK A01 T00831098  RH  027%=      5-min Rain = 0
KEA1 121808Z 20014KT 08/M10 A3015 RMK A01 T00821099  RH  027%=      5-min Rain = 0
KEA1 121809Z 19013KT 08/M10 A3015 RMK A01 T00821098  RH  027%=      5-min Rain = 0
KEA1 121810Z 18011KT 08/M10 A3015 RMK A01 T00841100  RH  026%=      5-min Rain = 0
KEA1 121811Z 19014KT 08/M10 A3015 RMK A01 T00821101  RH  026%=      5-min Rain = 0
KEA1 121812Z 18014KT 08/M10 A3015 RMK A01 T00821100  RH  026%=      5-min Rain = 0
KEA1 121813Z 18014KT 08/M10 A3014 RMK A01 T00821098  RH  027%=      5-min Rain = 0
KEA1 121814Z 18017KT 08/M10 A3014 RMK A01 T00811098  RH  027%=      5-min Rain = 0
KEA1 121815Z 19013KT 08/M10 A3014 RMK A01 T00801098  RH  027%=      5-min Rain = 0
KEA1 121816Z 17013KT 08/M10 A3014 RMK A01 T00791096  RH  028%=      5-min Rain = 0
KEA1 121817Z 19017KT 09/M09 A3014 RMK A01 T00861088  RH  028%=      5-min Rain = 0
KEA1 121818Z 19015KT 09/M09 A3014 RMK A01 T00891087  RH  028%=      5-min Rain = 0
KEA1 121819Z 22011KT 09/M09 A3014 RMK A01 T00901087  RH  028%=      5-min Rain = 0
KEA1 121820Z 19010KT 09/M09 A3014 RMK A01 T00941086  RH  027%=      5-min Rain = 0
KEA1 121821Z 18010G16KT 10/M09 A3014 RMK A01 T00951090  RH  026%=      5-min Rain = 0
KEA1 121822Z 19011KT 10/M09 A3014 RMK A01 T00951091  RH  026%=      5-min Rain = 0
KEA1 121823Z 20011KT 09/M09 A3014 RMK A01 T00941092  RH  026%=      5-min Rain = 0
KEA1 121824Z 19016KT 09/M09 A3013 RMK A01 T00921091  RH  026%=      5-min Rain = 0
KEA1 121825Z 20016KT 09/M09 A3013 RMK A01 T00931088  RH  027%=      5-min Rain = 0
KEA1 121826Z 19012KT 09/M09 A3013 RMK A01 T00941089  RH  027%=      5-min Rain = 0
KEA1 121827Z 18012KT 09/M09 A3013 RMK A01 T00921090  RH  027%=      5-min Rain = 0
KEA1 121828Z 19013KT 09/M09 A3013 RMK A01 T00921088  RH  027%=      5-min Rain = 0
KEA1 121829Z 19014KT 10/M09 A3013 RMK A01 T00951088  RH  027%=      5-min Rain = 0
KEA1 121830Z 18014KT 09/M09 A3013 RMK A01 T00931090  RH  027%=      5-min Rain = 0
KEA1 121831Z 20011KT 09/M09 A3013 RMK A01 T00941087  RH  027%=      5-min Rain = 0
KEA1 121832Z 19012G17KT 10/M09 A3013 RMK A01 T00961087  RH  026%=      5-min Rain = 0
KEA1 121833Z 18017KT 10/M09 A3012 RMK A01 T00961089  RH  026%=      5-min Rain = 0
KEA1 121834Z 19015KT 09/M09 A3012 RMK A01 T00921091  RH  026%=      5-min Rain = 0
KEA1 121835Z 19017KT 09/M09 A3012 RMK A01 T00921090  RH  027%=      5-min Rain = 0
KEA1 121836Z 19016KT 09/M09 A3012 RMK A01 T00931090  RH  027%=      5-min Rain = 0
KEA1 121837Z 19017KT 09/M09 A3011 RMK A01 T00941089  RH  027%=      5-min Rain = 0
KEA1 121838Z 20020KT 10/M09 A3011 RMK A01 T00951089  RH  026%=      5-min Rain = 0
KEA1 121839Z 19015KT 09/M09 A3012 RMK A01 T00931089  RH  027%=      5-min Rain = 0
KEA1 121840Z 20014G21KT 09/M09 A3012 RMK A01 T00931088  RH  027%=      5-min Rain = 0
KEA1 121841Z 20016KT 10/M09 A3012 RMK A01 T00961087  RH  027%=      5-min Rain = 0
KEA1 121842Z 18014KT 10/M09 A3012 RMK A01 T00961089  RH  026%=      5-min Rain = 0
KEA1 121843Z 18011KT 10/M09 A3012 RMK A01 T00961090  RH  026%=      5-min Rain = 0
KEA1 121844Z 19015KT 10/M09 A3012 RMK A01 T00981088  RH  026%=      5-min Rain = 0
KEA1 121845Z 20013KT 10/M09 A3012 RMK A01 T00971089  RH  026%=      5-min Rain = 0
KEA1 121846Z 19013KT 10/M09 A3011 RMK A01 T00951088  RH  027%=      5-min Rain = 0
KEA1 121847Z 19017KT 10/M09 A3011 RMK A01 T00971086  RH  027%=      5-min Rain = 0
KEA1 121848Z 18014KT 10/M09 A3011 RMK A01 T00981085  RH  027%=      5-min Rain = 0
KEA1 121849Z 18012G18KT 10/M08 A3011 RMK A01 T01001084  RH  026%=      5-min Rain = 0
KEA1 121850Z 19014KT 10/M09 A3011 RMK A01 T01021085  RH  026%=      5-min Rain = 0
KEA1 121851Z 19015KT 10/M09 A3011 RMK A01 T00991087  RH  026%=      5-min Rain = 0
KEA1 121852Z 20015KT 10/M09 A3011 RMK A01 T00971087  RH  026%=      5-min Rain = 0
KEA1 121853Z 21013KT 10/M09 A3011 RMK A01 T00971087  RH  027%=      5-min Rain = 0
KEA1 121854Z 18011KT 10/M08 A3011 RMK A01 T00991084  RH  027%=      5-min Rain = 0
KEA1 121855Z 18014KT 10/M08 A301 RMK A01 T01031083  RH  026%=      5-min Rain = 0
KEA1 121856Z 18016KT 11/M08 A301 RMK A01 T01081084  RH  025%=      5-min Rain = 0
KEA1 121857Z 18018KT 11/M09 A301 RMK A01 T01061086  RH  025%=      5-min Rain = 0
KEA1 121858Z 18016KT 10/M09 A301 RMK A01 T01031087  RH  025%=      5-min Rain = 0
KEA1 121859Z 19013KT 10/M09 A301 RMK A01 T01011087  RH  026%=      5-min Rain = 0
KEA1 121900Z 19012KT 10/M09 A3011 RMK A01 T01011086  RH  026%=      5-min Rain = 0
KEA1 121901Z 21014KT 11/M08 A301 RMK A01 T01051083  RH  026%=      5-min Rain = 0
KEA1 121902Z 19013KT 10/M08 A3011 RMK A01 T01041084  RH  026%=      5-min Rain = 0
KEA1 121903Z 20014KT 11/M08 A301 RMK A01 T01051084  RH  026%=      5-min Rain = 0
KEA1 121904Z 20015KT 11/M08 A301 RMK A01 T01051084  RH  026%=      5-min Rain = 0
KEA1 121905Z 19013KT 11/M08 A301 RMK A01 T01051084  RH  026%=      5-min Rain = 0
KEA1 121906Z 19012KT 10/M08 A301 RMK A01 T01031083  RH  026%=      5-min Rain = 0
KEA1 121907Z 19010KT 11/M08 A301 RMK A01 T01061080  RH  026%=      5-min Rain = 0
KEA1 121908Z 18012KT 11/M08 A301 RMK A01 T01101079  RH  026%=      5-min Rain = 0
KEA1 121909Z 18011KT 11/M08 A301 RMK A01 T01131078  RH  025%=      5-min Rain = 0
KEA1 121910Z 18014KT 12/M08 A301 RMK A01 T01151078  RH  025%=      5-min Rain = 0
KEA1 121911Z 19010KT 11/M08 A301 RMK A01 T01131081  RH  025%=      5-min Rain = 0
KEA1 121912Z 20009KT 11/M08 A301 RMK A01 T01121080  RH  025%=      5-min Rain = 0
KEA1 121913Z 19011KT 11/M08 A301 RMK A01 T01131081  RH  025%=      5-min Rain = 0
KEA1 121914Z 19011KT 11/M08 A301 RMK A01 T01141082  RH  025%=      5-min Rain = 0
KEA1 121915Z 19012KT 11/M08 A301 RMK A01 T01101084  RH  025%=      5-min Rain = 0
KEA1 121916Z 20010KT 11/M08 A301 RMK A01 T01121080  RH  025%=      5-min Rain = 0
KEA1 121917Z 18012KT 12/M08 A301 RMK A01 T01161078  RH  025%=      5-min Rain = 0
KEA1 121918Z 18014KT 12/M08 A301 RMK A01 T01151080  RH  025%=      5-min Rain = 0
KEA1 121919Z 20012KT 11/M08 A301 RMK A01 T01131080  RH  025%=      5-min Rain = 0
KEA1 121920Z 20009G14KT 11/M08 A301 RMK A01 T01121081  RH  025%=      5-min Rain = 0
KEA1 121921Z 17009G16KT 11/M08 A301 RMK A01 T01111081  RH  025%=      5-min Rain = 0
KEA1 121922Z 18013KT 11/M08 A3009 RMK A01 T01131080  RH  025%=      5-min Rain = 0
KEA1 121923Z 19013KT 11/M08 A3009 RMK A01 T01101081  RH  025%=      5-min Rain = 0
KEA1 121924Z 19015KT 11/M08 A3009 RMK A01 T01111079  RH  026%=      5-min Rain = 0
KEA1 121925Z 18012KT 11/M08 A3009 RMK A01 T01121079  RH  025%=      5-min Rain = 0
KEA1 121926Z 19014KT 12/M08 A3009 RMK A01 T01151078  RH  025%=      5-min Rain = 0
KEA1 121927Z 19012KT 12/M08 A3009 RMK A01 T01161079  RH  025%=      5-min Rain = 0
KEA1 121928Z 19010KT 12/M08 A3009 RMK A01 T01151080  RH  025%=      5-min Rain = 0
KEA1 121929Z 20011G16KT 11/M08 A3009 RMK A01 T01131081  RH  025%=      5-min Rain = 0
KEA1 121930Z 19015KT 12/M08 A3009 RMK A01 T01161078  RH  025%=      5-min Rain = 0
KEA1 121931Z 18016KT 12/M08 A3009 RMK A01 T01161078  RH  025%=      5-min Rain = 0
KEA1 121932Z 19014KT 12/M08 A3009 RMK A01 T01151079  RH  025%=      5-min Rain = 0
KEA1 121933Z 18012KT 11/M08 A3009 RMK A01 T01141079  RH  025%=      5-min Rain = 0
KEA1 121934Z 18014KT 12/M08 A3008 RMK A01 T01161076  RH  025%=      5-min Rain = 0
KEA1 121935Z 19013KT 12/M08 A3008 RMK A01 T01191076  RH  025%=      5-min Rain = 0
KEA1 121936Z 18012KT 12/M08 A3008 RMK A01 T01221076  RH  024%=      5-min Rain = 0
KEA1 121937Z 18011KT 12/M08 A3008 RMK A01 T01211077  RH  024%=      5-min Rain = 0
KEA1 121938Z 18015KT 12/M08 A3008 RMK A01 T01221077  RH  024%=      5-min Rain = 0
KEA1 121939Z 18014KT 12/M08 A3008 RMK A01 T01211076  RH  024%=      5-min Rain = 0
KEA1 121940Z 18015KT 12/M08 A3008 RMK A01 T01211078  RH  024%=      5-min Rain = 0
KEA1 121941Z 18014KT 12/M08 A3008 RMK A01 T01201081  RH  024%=      5-min Rain = 0
KEA1 121942Z 19014KT 12/M08 A3008 RMK A01 T01191081  RH  024%=      5-min Rain = 0
KEA1 121943Z 18014KT 12/M08 A3008 RMK A01 T01201079  RH  024%=      5-min Rain = 0
KEA1 121944Z 17013KT 12/M08 A3007 RMK A01 T01191080  RH  024%=      5-min Rain = 0
KEA1 121945Z 17012KT 12/M08 A3007 RMK A01 T01191080  RH  024%=      5-min Rain = 0
KEA1 121946Z 17012KT 12/M08 A3007 RMK A01 T01211079  RH  024%=      5-min Rain = 0
KEA1 121947Z 17013KT 12/M08 A3007 RMK A01 T01231078  RH  024%=      5-min Rain = 0
KEA1 121948Z 18014KT 13/M08 A3007 RMK A01 T01251077  RH  024%=      5-min Rain = 0
KEA1 121949Z 20014KT 13/M08 A3007 RMK A01 T01271076  RH  024%=      5-min Rain = 0
KEA1 121950Z 19012KT 13/M08 A3007 RMK A01 T01261075  RH  024%=      5-min Rain = 0
KEA1 121951Z 17013KT 12/M08 A3007 RMK A01 T01241076  RH  024%=      5-min Rain = 0
KEA1 121952Z 17014KT 12/M08 A3007 RMK A01 T01241080  RH  023%=      5-min Rain = 0
KEA1 121953Z 17014KT 12/M08 A3007 RMK A01 T01221081  RH  023%=      5-min Rain = 0
KEA1 121954Z 17013KT 12/M08 A3007 RMK A01 T01211082  RH  023%=      5-min Rain = 0
KEA1 121955Z 17009KT 12/M08 A3007 RMK A01 T01211080  RH  024%=      5-min Rain = 0
KEA1 121956Z 16010KT 12/M08 A3007 RMK A01 T01241079  RH  023%=      5-min Rain = 0
KEA1 121957Z 19011KT 13/M08 A3007 RMK A01 T01281077  RH  023%=      5-min Rain = 0
KEA1 121958Z 19010KT 13/M08 A3007 RMK A01 T01291078  RH  023%=      5-min Rain = 0
KEA1 121959Z 19010KT 13/M08 A3007 RMK A01 T01281077  RH  023%=      5-min Rain = 0
KEA1 122000Z 18010KT 13/M08 A3007 RMK A01 T01301077  RH  023%=      5-min Rain = 0
KEA1 122001Z 16011KT 13/M08 A3007 RMK A01 T01311077  RH  023%=      5-min Rain = 0
KEA1 122002Z 16011G16KT 13/M08 A3007 RMK A01 T01311078  RH  023%=      5-min Rain = 0
KEA1 122003Z 16014KT 13/M08 A3007 RMK A01 T01301079  RH  023%=      5-min Rain = 0
KEA1 122004Z 16014KT 13/M08 A3007 RMK A01 T01291080  RH  023%=      5-min Rain = 0
KEA1 122005Z 17013KT 13/M08 A3007 RMK A01 T01271082  RH  022%=      5-min Rain = 0
KEA1 122006Z 16011KT 13/M08 A3007 RMK A01 T01261081  RH  023%=      5-min Rain = 0
KEA1 122007Z 16011KT 13/M08 A3007 RMK A01 T01281081  RH  023%=      5-min Rain = 0
KEA1 122008Z 17013KT 13/M08 A3006 RMK A01 T01281079  RH  023%=      5-min Rain = 0
KEA1 122009Z 17011KT 13/M08 A3006 RMK A01 T01291077  RH  023%=      5-min Rain = 0
KEA1 122010Z 18014KT 13/M08 A3006 RMK A01 T01301075  RH  023%=      5-min Rain = 0
KEA1 122011Z 18013KT 13/M07 A3006 RMK A01 T01301073  RH  024%=      5-min Rain = 0
KEA1 122012Z 18009KT 13/M07 A3006 RMK A01 T01301072  RH  024%=      5-min Rain = 0
KEA1 122013Z 16013KT 13/M07 A3006 RMK A01 T01321070  RH  024%=      5-min Rain = 0
KEA1 122014Z 17010KT 14/M07 A3006 RMK A01 T01371068  RH  024%=      5-min Rain = 0
KEA1 122015Z 16012G17KT 14/M07 A3006 RMK A01 T01411070  RH  023%=      5-min Rain = 0
KEA1 122016Z 16016KT 14/M08 A3006 RMK A01 T01391076  RH  022%=      5-min Rain = 0
KEA1 122017Z 16014KT 14/M08 A3006 RMK A01 T01361080  RH  022%=      5-min Rain = 0
KEA1 122018Z 16013KT 13/M08 A3006 RMK A01 T01321081  RH  022%=      5-min Rain = 0
KEA1 122019Z 16014KT 13/M08 A3006 RMK A01 T01301081  RH  022%=      5-min Rain = 0
KEA1 122020Z 17014KT 13/M08 A3006 RMK A01 T01341078  RH  022%=      5-min Rain = 0
KEA1 122021Z 15014KT 14/M08 A3006 RMK A01 T01351079  RH  022%=      5-min Rain = 0
KEA1 122022Z 16013KT 13/M08 A3006 RMK A01 T01341079  RH  022%=      5-min Rain = 0
KEA1 122023Z 17013KT 14/M08 A3006 RMK A01 T01351076  RH  022%=      5-min Rain = 0
KEA1 122024Z 17011KT 14/M07 A3006 RMK A01 T01361074  RH  023%=      5-min Rain = 0
KEA1 122025Z 15009KT 14/M08 A3006 RMK A01 T01361075  RH  022%=      5-min Rain = 0
KEA1 122026Z 17013KT 14/M07 A3006 RMK A01 T01381074  RH  022%=      5-min Rain = 0
KEA1 122027Z 17012KT 14/M07 A3006 RMK A01 T01421065  RH  023%=      5-min Rain = 0
KEA1 122028Z 16012KT 14/M07 A3006 RMK A01 T01411067  RH  023%=      5-min Rain = 0
KEA1 122029Z 17010KT 14/M08 A3006 RMK A01 T01401077  RH  022%=      5-min Rain = 0
KEA1 122030Z 16010KT 14/M08 A3006 RMK A01 T01401079  RH  021%=      5-min Rain = 0
KEA1 122031Z 15013KT 14/M08 A3006 RMK A01 T01401078  RH  021%=      5-min Rain = 0
KEA1 122032Z 14012KT 14/M08 A3006 RMK A01 T01391078  RH  021%=      5-min Rain = 0
KEA1 122033Z 15011KT 14/M08 A3006 RMK A01 T01381077  RH  022%=      5-min Rain = 0
KEA1 122034Z 15010KT 14/M07 A3006 RMK A01 T01401074  RH  022%=      5-min Rain = 0
KEA1 122035Z 14009KT 14/M07 A3006 RMK A01 T01401074  RH  022%=      5-min Rain = 0
KEA1 122036Z 14009G14KT 14/M08 A3006 RMK A01 T01401076  RH  022%=      5-min Rain = 0
KEA1 122037Z 13013KT 14/M08 A3006 RMK A01 T01401080  RH  021%=      5-min Rain = 0
KEA1 122038Z 13011KT 14/M08 A3006 RMK A01 T01371082  RH  021%=      5-min Rain = 0
KEA1 122039Z 13011KT 14/M08 A3006 RMK A01 T01361081  RH  021%=      5-min Rain = 0
KEA1 122040Z 13014KT 14/M08 A3006 RMK A01 T01361079  RH  022%=      5-min Rain = 0
KEA1 122041Z 13011KT 14/M08 A3006 RMK A01 T01361077  RH  022%=      5-min Rain = 0
KEA1 122042Z 12009G21KT 14/M08 A3005 RMK A01 T01391077  RH  022%=      5-min Rain = 0
KEA1 122043Z 18011G21KT 14/M07 A3005 RMK A01 T01401073  RH  022%=      5-min Rain = 0
KEA1 122044Z 19011KT 14/M07 A3005 RMK A01 T01431065  RH  023%=      5-min Rain = 0
KEA1 122045Z 20009KT 15/M06 A3006 RMK A01 T01451059  RH  024%=      5-min Rain = 0
KEA1 122046Z 19008KT 15/M06 A3006 RMK A01 T01451057  RH  024%=      5-min Rain = 0
KEA1 122047Z 17006KT 15/M06 A3005 RMK A01 T01461057  RH  024%=      5-min Rain = 0
KEA1 122048Z 19006KT 15/M06 A3005 RMK A01 T01481056  RH  024%=      5-min Rain = 0
KEA1 122049Z 19008KT 15/M06 A3005 RMK A01 T01511055  RH  024%=      5-min Rain = 0
KEA1 122050Z 19008KT 15/M06 A3005 RMK A01 T01531056  RH  023%=      5-min Rain = 0
KEA1 122051Z 20011KT 15/M06 A3005 RMK A01 T01531056  RH  023%=      5-min Rain = 0
KEA1 122052Z 19013KT 15/M06 A3005 RMK A01 T01541060  RH  022%=      5-min Rain = 0
KEA1 122053Z 16013KT 15/M07 A3005 RMK A01 T01511069  RH  021%=      5-min Rain = 0
KEA1 122054Z 15012KT 15/M07 A3005 RMK A01 T01481065  RH  022%=      5-min Rain = 0
KEA1 122055Z 16016KT 15/M07 A3005 RMK A01 T01471066  RH  022%=      5-min Rain = 0
KEA1 122056Z 16014KT 15/M07 A3005 RMK A01 T01461068  RH  022%=      5-min Rain = 0
KEA1 122057Z 16010G15KT 15/M07 A3005 RMK A01 T01451069  RH  022%=      5-min Rain = 0
KEA1 122058Z 18015KT 15/M06 A3005 RMK A01 T01461064  RH  023%=      5-min Rain = 0
KEA1 122059Z 18013KT 15/M06 A3005 RMK A01 T01471060  RH  023%=      5-min Rain = 0
KEA1 122100Z 18011KT 15/M06 A3005 RMK A01 T01481059  RH  023%=      5-min Rain = 0
KEA1 122101Z 17009KT 15/M06 A3005 RMK A01 T01491059  RH  023%=      5-min Rain = 0
KEA1 122102Z 17009KT 15/M06 A3005 RMK A01 T01501058  RH  023%=      5-min Rain = 0
KEA1 122103Z 18008KT 15/M06 A3005 RMK A01 T01521057  RH  023%=      5-min Rain = 0
KEA1 122104Z 18010KT 15/M06 A3005 RMK A01 T01541058  RH  023%=      5-min Rain = 0
KEA1 122105Z 19013KT 16/M06 A3005 RMK A01 T01551061  RH  022%=      5-min Rain = 0
KEA1 122106Z 17012KT 15/M06 A3005 RMK A01 T01541061  RH  022%=      5-min Rain = 0
KEA1 122107Z 17014KT 16/M06 A3005 RMK A01 T01551061  RH  022%=      5-min Rain = 0
KEA1 122108Z 17011KT 15/M06 A3005 RMK A01 T01511063  RH  022%=      5-min Rain = 0
KEA1 122109Z 15014KT 15/M07 A3005 RMK A01 T01491068  RH  022%=      5-min Rain = 0
KEA1 122110Z 15013KT 15/M08 A3005 RMK A01 T01461076  RH  021%=      5-min Rain = 0
KEA1 122111Z 14013KT 15/M08 A3005 RMK A01 T01461075  RH  021%=      5-min Rain = 0
KEA1 122112Z 15014KT 15/M08 A3005 RMK A01 T01461075  RH  021%=      5-min Rain = 0
KEA1 122113Z 15014KT 15/M08 A3005 RMK A01 T01461076  RH  021%=      5-min Rain = 0
KEA1 122114Z 15014KT 14/M08 A3005 RMK A01 T01441077  RH  021%=      5-min Rain = 0
KEA1 122115Z 14014KT 14/M08 A3005 RMK A01 T01441076  RH  021%=      5-min Rain = 0
KEA1 122116Z 15013KT 14/M08 A3005 RMK A01 T01441075  RH  021%=      5-min Rain = 0
KEA1 122117Z 15013KT 14/M08 A3005 RMK A01 T01441075  RH  021%=      5-min Rain = 0
KEA1 122118Z 15014KT 15/M07 A3005 RMK A01 T01461072  RH  021%=      5-min Rain = 0
KEA1 122119Z 15010KT 15/M07 A3005 RMK A01 T01471072  RH  021%=      5-min Rain = 0
KEA1 122120Z 15012KT 15/M07 A3005 RMK A01 T01461071  RH  022%=      5-min Rain = 0
KEA1 122121Z 15011KT 15/M07 A3005 RMK A01 T01491068  RH  022%=      5-min Rain = 0
KEA1 122122Z 16011KT 15/M07 A3005 RMK A01 T01531069  RH  021%=      5-min Rain = 0
KEA1 122123Z 15012KT 15/M07 A3005 RMK A01 T01521072  RH  021%=      5-min Rain = 0
KEA1 122124Z 13010KT 15/M08 A3005 RMK A01 T01501075  RH  020%=      5-min Rain = 0
KEA1 122125Z 15010KT 15/M08 A3005 RMK A01 T01501075  RH  020%=      5-min Rain = 0
KEA1 122126Z 16011KT 15/M07 A3005 RMK A01 T01481072  RH  021%=      5-min Rain = 0
KEA1 122127Z 15011KT 15/M07 A3005 RMK A01 T01471072  RH  021%=      5-min Rain = 0
KEA1 122128Z 15012KT 15/M07 A3005 RMK A01 T01471071  RH  021%=      5-min Rain = 0
KEA1 122129Z 16012KT 15/M07 A3005 RMK A01 T01461072  RH  021%=      5-min Rain = 0
KEA1 122130Z 17013KT 15/M07 A3005 RMK A01 T01461070  RH  022%=      5-min Rain = 0
KEA1 122131Z 16013KT 15/M07 A3005 RMK A01 T01461068  RH  022%=      5-min Rain = 0
KEA1 122132Z 16012KT 15/M07 A3005 RMK A01 T01471066  RH  022%=      5-min Rain = 0
KEA1 122133Z 15012KT 15/M07 A3005 RMK A01 T01471067  RH  022%=      5-min Rain = 0
KEA1 122134Z 16013KT 15/M07 A3005 RMK A01 T01471065  RH  022%=      5-min Rain = 0
KEA1 122135Z 15013KT 15/M06 A3005 RMK A01 T01481064  RH  023%=      5-min Rain = 0
KEA1 122136Z 15013KT 15/M06 A3005 RMK A01 T01491064  RH  022%=      5-min Rain = 0
KEA1 122137Z 15011KT 15/M07 A3005 RMK A01 T01491065  RH  022%=      5-min Rain = 0
KEA1 122138Z 16014KT 15/M07 A3005 RMK A01 T01511066  RH  022%=      5-min Rain = 0
KEA1 122139Z 15013KT 15/M07 A3005 RMK A01 T01501071  RH  021%=      5-min Rain = 0
KEA1 122140Z 15013KT 15/M07 A3005 RMK A01 T01481072  RH  021%=      5-min Rain = 0
KEA1 122141Z 15013KT 15/M07 A3005 RMK A01 T01471071  RH  021%=      5-min Rain = 0
KEA1 122142Z 15013KT 15/M07 A3005 RMK A01 T01471073  RH  021%=      5-min Rain = 0
KEA1 122143Z 16012KT 15/M07 A3005 RMK A01 T01471073  RH  021%=      5-min Rain = 0
KEA1 122144Z 16011KT 15/M07 A3005 RMK A01 T01481071  RH  021%=      5-min Rain = 0
KEA1 122145Z 15013KT 15/M07 A3005 RMK A01 T01481072  RH  021%=      5-min Rain = 0
KEA1 122146Z 15012KT 15/M07 A3005 RMK A01 T01481071  RH  021%=      5-min Rain = 0
KEA1 122147Z 15012KT 15/M07 A3005 RMK A01 T01471070  RH  022%=      5-min Rain = 0
KEA1 122148Z 15013KT 15/M07 A3005 RMK A01 T01471070  RH  022%=      5-min Rain = 0
KEA1 122149Z 15014KT 15/M07 A3005 RMK A01 T01461071  RH  022%=      5-min Rain = 0
KEA1 122150Z 15014KT 14/M07 A3005 RMK A01 T01431074  RH  021%=      5-min Rain = 0
KEA1 122151Z 14012KT 14/M07 A3005 RMK A01 T01421074  RH  022%=      5-min Rain = 0
KEA1 122152Z 14010KT 14/M07 A3005 RMK A01 T01411073  RH  022%=      5-min Rain = 0
KEA1 122153Z 16010KT 14/M07 A3005 RMK A01 T01441071  RH  022%=      5-min Rain = 0
KEA1 122154Z 15009KT 15/M07 A3005 RMK A01 T01461070  RH  022%=      5-min Rain = 0
KEA1 122155Z 16011KT 15/M07 A3005 RMK A01 T01471069  RH  022%=      5-min Rain = 0
KEA1 122156Z 15010KT 15/M07 A3005 RMK A01 T01471069  RH  022%=      5-min Rain = 0
KEA1 122157Z 15009KT 15/M07 A3005 RMK A01 T01461070  RH  022%=      5-min Rain = 0
KEA1 122158Z 14011KT 15/M07 A3005 RMK A01 T01461071  RH  022%=      5-min Rain = 0
KEA1 122159Z 14013KT 15/M07 A3005 RMK A01 T01451073  RH  021%=      5-min Rain = 0
KEA1 122200Z 14012KT 14/M07 A3005 RMK A01 T01441073  RH  022%=      5-min Rain = 0
KEA1 122201Z 14010KT 14/M07 A3005 RMK A01 T01441073  RH  022%=      5-min Rain = 0
KEA1 122202Z 14014KT 14/M07 A3005 RMK A01 T01441074  RH  021%=      5-min Rain = 0
KEA1 122203Z 14014KT 14/M08 A3005 RMK A01 T01421076  RH  021%=      5-min Rain = 0
KEA1 122204Z 14014KT 14/M08 A3005 RMK A01 T01401076  RH  022%=      5-min Rain = 0
KEA1 122205Z 14014KT 14/M08 A3005 RMK A01 T01391075  RH  022%=      5-min Rain = 0
KEA1 122206Z 15014KT 14/M08 A3005 RMK A01 T01391075  RH  022%=      5-min Rain = 0
KEA1 122207Z 14015KT 14/M07 A3006 RMK A01 T01391074  RH  022%=      5-min Rain = 0
KEA1 122208Z 14014KT 14/M07 A3006 RMK A01 T01401074  RH  022%=      5-min Rain = 0
KEA1 122209Z 14014KT 14/M07 A3006 RMK A01 T01401074  RH  022%=      5-min Rain = 0
KEA1 122210Z 13012KT 14/M07 A3006 RMK A01 T01411074  RH  022%=      5-min Rain = 0
KEA1 122211Z 14010KT 14/M07 A3006 RMK A01 T01411073  RH  022%=      5-min Rain = 0
KEA1 122212Z 14012G17KT 14/M07 A3006 RMK A01 T01421073  RH  022%=      5-min Rain = 0
KEA1 122213Z 14014KT 14/M07 A3006 RMK A01 T01421074  RH  022%=      5-min Rain = 0
KEA1 122214Z 14012KT 14/M07 A3006 RMK A01 T01411074  RH  022%=      5-min Rain = 0
KEA1 122215Z 14015KT 14/M07 A3006 RMK A01 T01411074  RH  022%=      5-min Rain = 0
KEA1 122216Z 14013KT 14/M08 A3006 RMK A01 T01411075  RH  022%=      5-min Rain = 0
KEA1 122217Z 13015KT 14/M08 A3006 RMK A01 T01411077  RH  021%=      5-min Rain = 0
KEA1 122218Z 14014KT 14/M08 A3006 RMK A01 T01401078  RH  021%=      5-min Rain = 0
KEA1 122219Z 14013KT 14/M08 A3006 RMK A01 T01391077  RH  022%=      5-min Rain = 0
KEA1 122220Z 14014KT 14/M08 A3006 RMK A01 T01401077  RH  022%=      5-min Rain = 0
KEA1 122221Z 14014KT 14/M08 A3006 RMK A01 T01401076  RH  022%=      5-min Rain = 0
KEA1 122222Z 15015KT 14/M08 A3006 RMK A01 T01401075  RH  022%=      5-min Rain = 0
KEA1 122223Z 14014KT 14/M08 A3006 RMK A01 T01401075  RH  022%=      5-min Rain = 0
KEA1 122224Z 14013KT 14/M07 A3006 RMK A01 T01411074  RH  022%=      5-min Rain = 0
KEA1 122225Z 14011KT 14/M07 A3006 RMK A01 T01421073  RH  022%=      5-min Rain = 0
KEA1 122226Z 14015KT 14/M07 A3006 RMK A01 T01431073  RH  022%=      5-min Rain = 0
KEA1 122227Z 14013KT 14/M07 A3006 RMK A01 T01421074  RH  022%=      5-min Rain = 0
KEA1 122228Z 14014KT 14/M08 A3006 RMK A01 T01421075  RH  022%=      5-min Rain = 0
KEA1 122229Z 14017KT 14/M08 A3006 RMK A01 T01421076  RH  021%=      5-min Rain = 0
KEA1 122230Z 15015KT 14/M08 A3006 RMK A01 T01391078  RH  021%=      5-min Rain = 0
KEA1 122231Z 15013KT 14/M08 A3006 RMK A01 T01381078  RH  022%=      5-min Rain = 0
KEA1 122232Z 14015KT 14/M08 A3006 RMK A01 T01381077  RH  022%=      5-min Rain = 0
KEA1 122233Z 15016KT 14/M08 A3006 RMK A01 T01391077  RH  022%=      5-min Rain = 0
KEA1 122234Z 15015KT 14/M08 A3006 RMK A01 T01381078  RH  022%=      5-min Rain = 0
KEA1 122235Z 14014KT 14/M08 A3006 RMK A01 T01371077  RH  022%=      5-min Rain = 0
KEA1 122236Z 14013KT 14/M08 A3006 RMK A01 T01381077  RH  022%=      5-min Rain = 0
KEA1 122237Z 14015KT 14/M08 A3006 RMK A01 T01381077  RH  022%=      5-min Rain = 0
KEA1 122238Z 15013KT 14/M08 A3007 RMK A01 T01381078  RH  022%=      5-min Rain = 0
KEA1 122239Z 14015KT 14/M08 A3007 RMK A01 T01391077  RH  022%=      5-min Rain = 0
KEA1 122240Z 15015KT 14/M08 A3007 RMK A01 T01381077  RH  022%=      5-min Rain = 0
KEA1 122241Z 14014KT 14/M08 A3007 RMK A01 T01381077  RH  022%=      5-min Rain = 0
KEA1 122242Z 14012KT 14/M08 A3007 RMK A01 T01371077  RH  022%=      5-min Rain = 0
KEA1 122243Z 14016KT 14/M08 A3007 RMK A01 T01381077  RH  022%=      5-min Rain = 0
KEA1 122244Z 13016KT 14/M08 A3007 RMK A01 T01371078  RH  022%=      5-min Rain = 0
KEA1 122245Z 14015KT 14/M08 A3007 RMK A01 T01361079  RH  022%=      5-min Rain = 0
KEA1 122246Z 13016G21KT 14/M08 A3007 RMK A01 T01351079  RH  022%=      5-min Rain = 0
KEA1 122247Z 14016KT 13/M08 A3007 RMK A01 T01331080  RH  022%=      5-min Rain = 0
KEA1 122248Z 14015KT 13/M08 A3007 RMK A01 T01321080  RH  022%=      5-min Rain = 0
KEA1 122249Z 14015KT 13/M08 A3007 RMK A01 T01311080  RH  022%=      5-min Rain = 0
KEA1 122250Z 14017KT 13/M08 A3007 RMK A01 T01301081  RH  022%=      5-min Rain = 0
KEA1 122251Z 14016KT 13/M08 A3007 RMK A01 T01301081  RH  022%=      5-min Rain = 0
KEA1 122252Z 14016G21KT 13/M08 A3007 RMK A01 T01291081  RH  022%=      5-min Rain = 0
KEA1 122253Z 14015KT 13/M08 A3007 RMK A01 T01291081  RH  022%=      5-min Rain = 0
KEA1 122254Z 14016KT 13/M08 A3007 RMK A01 T01281082  RH  022%=      5-min Rain = 0
KEA1 122255Z 14016KT 13/M08 A3007 RMK A01 T01271082  RH  022%=      5-min Rain = 0
KEA1 122256Z 14017KT 13/M08 A3007 RMK A01 T01271082  RH  022%=      5-min Rain = 0
KEA1 122257Z 15015KT 13/M08 A3007 RMK A01 T01271082  RH  023%=      5-min Rain = 0
KEA1 122258Z 14016KT 13/M08 A3007 RMK A01 T01261082  RH  023%=      5-min Rain = 0
KEA1 122259Z 14017KT 13/M08 A3007 RMK A01 T01261082  RH  023%=      5-min Rain = 0
KEA1 122300Z 14016KT 13/M08 A3007 RMK A01 T01251082  RH  023%=      5-min Rain = 0
KEA1 122301Z 14016KT 13/M08 A3007 RMK A01 T01251082  RH  023%=      5-min Rain = 0
KEA1 122302Z 14014KT 13/M08 A3007 RMK A01 T01251082  RH  023%=      5-min Rain = 0
KEA1 122303Z 14015KT 13/M08 A3007 RMK A01 T01251082  RH  023%=      5-min Rain = 0
KEA1 122304Z 14015KT 13/M08 A3007 RMK A01 T01251082  RH  023%=      5-min Rain = 0
KEA1 122305Z 14014KT 12/M08 A3007 RMK A01 T01241083  RH  023%=      5-min Rain = 0
KEA1 122306Z 14015KT 12/M08 A3007 RMK A01 T01231084  RH  023%=      5-min Rain = 0
KEA1 122307Z 14015KT 12/M08 A3008 RMK A01 T01221084  RH  023%=      5-min Rain = 0
KEA1 122308Z 14017KT 12/M09 A3008 RMK A01 T01211085  RH  023%=      5-min Rain = 0
KEA1 122309Z 13017KT 12/M09 A3008 RMK A01 T01201086  RH  023%=      5-min Rain = 0
KEA1 122310Z 14016KT 12/M09 A3008 RMK A01 T01191085  RH  023%=      5-min Rain = 0
KEA1 122311Z 14015KT 12/M09 A3008 RMK A01 T01191085  RH  023%=      5-min Rain = 0
KEA1 122312Z 14015KT 12/M09 A3008 RMK A01 T01191085  RH  023%=      5-min Rain = 0
KEA1 122313Z 14014KT 12/M09 A3007 RMK A01 T01181085  RH  023%=      5-min Rain = 0
KEA1 122314Z 15013KT 12/M09 A3008 RMK A01 T01181085  RH  023%=      5-min Rain = 0
KEA1 122315Z 14015KT 12/M09 A3007 RMK A01 T01181085  RH  023%=      5-min Rain = 0
KEA1 122316Z 15013KT 12/M09 A3008 RMK A01 T01181085  RH  023%=      5-min Rain = 0
KEA1 122317Z 14016KT 12/M09 A3008 RMK A01 T01171085  RH  023%=      5-min Rain = 0
KEA1 122318Z 14019KT 12/M09 A3008 RMK A01 T01171085  RH  023%=      5-min Rain = 0
KEA1 122319Z 15015KT 12/M09 A3008 RMK A01 T01161085  RH  024%=      5-min Rain = 0
KEA1 122320Z 14015KT 12/M09 A3008 RMK A01 T01161085  RH  024%=      5-min Rain = 0
KEA1 122321Z 13015KT 12/M09 A3008 RMK A01 T01161085  RH  024%=      5-min Rain = 0
KEA1 122322Z 13014KT 12/M09 A3008 RMK A01 T01151086  RH  024%=      5-min Rain = 0
KEA1 122323Z 14012G17KT 11/M09 A3008 RMK A01 T01141086  RH  024%=      5-min Rain = 0
KEA1 122324Z 13015KT 11/M09 A3008 RMK A01 T01131087  RH  024%=      5-min Rain = 0
KEA1 122325Z 14014KT 11/M09 A3008 RMK A01 T01121087  RH  024%=      5-min Rain = 0
KEA1 122326Z 14013KT 11/M09 A3008 RMK A01 T01121087  RH  024%=      5-min Rain = 0
KEA1 122327Z 14012KT 11/M09 A3008 RMK A01 T01121087  RH  024%=      5-min Rain = 0
KEA1 122328Z 14015KT 11/M09 A3008 RMK A01 T01111087  RH  024%=      5-min Rain = 0
KEA1 122329Z 14018KT 11/M09 A3008 RMK A01 T01101087  RH  024%=      5-min Rain = 0
KEA1 122330Z 13016KT 11/M09 A3008 RMK A01 T01101087  RH  024%=      5-min Rain = 0
KEA1 122331Z 13013KT 11/M09 A3008 RMK A01 T01101087  RH  024%=      5-min Rain = 0
KEA1 122332Z 13014KT 11/M09 A3009 RMK A01 T01091087  RH  024%=      5-min Rain = 0
KEA1 122333Z 13014KT 11/M09 A3009 RMK A01 T01081087  RH  024%=      5-min Rain = 0
KEA1 122334Z 13013KT 11/M09 A3009 RMK A01 T01081088  RH  024%=      5-min Rain = 0
KEA1 122335Z 13012KT 11/M09 A3009 RMK A01 T01071087  RH  025%=      5-min Rain = 0
KEA1 122336Z 12012KT 11/M09 A3009 RMK A01 T01061088  RH  025%=      5-min Rain = 0
KEA1 122337Z 12013KT 11/M09 A3009 RMK A01 T01051088  RH  025%=      5-min Rain = 0
KEA1 122338Z 13012KT 11/M09 A3009 RMK A01 T01051087  RH  025%=      5-min Rain = 0
KEA1 122339Z 13010KT 10/M09 A3009 RMK A01 T01041087  RH  025%=      5-min Rain = 0
KEA1 122340Z 13011KT 10/M09 A3009 RMK A01 T01041087  RH  025%=      5-min Rain = 0
KEA1 122341Z 12013KT 10/M09 A3009 RMK A01 T01031087  RH  025%=      5-min Rain = 0
KEA1 122342Z 13014KT 10/M09 A3009 RMK A01 T01021088  RH  025%=      5-min Rain = 0
KEA1 122343Z 13013KT 10/M09 A3009 RMK A01 T01011088  RH  025%=      5-min Rain = 0
KEA1 122344Z 13013KT 10/M09 A3009 RMK A01 T01011088  RH  026%=      5-min Rain = 0
KEA1 122345Z 12014KT 10/M09 A3009 RMK A01 T01001088  RH  026%=      5-min Rain = 0
KEA1 122346Z 13012KT 10/M09 A3009 RMK A01 T00991089  RH  026%=      5-min Rain = 0
KEA1 122347Z 13011KT 10/M09 A3009 RMK A01 T00981089  RH  026%=      5-min Rain = 0
KEA1 122348Z 12010KT 10/M09 A3009 RMK A01 T00961089  RH  026%=      5-min Rain = 0
KEA1 122349Z 12012KT 10/M09 A3009 RMK A01 T00951089  RH  026%=      5-min Rain = 0
KEA1 122350Z 12010KT 09/M09 A3009 RMK A01 T00941089  RH  027%=      5-min Rain = 0
KEA1 122351Z 12011KT 09/M09 A3009 RMK A01 T00931089  RH  027%=      5-min Rain = 0
KEA1 122352Z 13012KT 09/M09 A3009 RMK A01 T00921089  RH  027%=      5-min Rain = 0
KEA1 122353Z 13013KT 09/M09 A3009 RMK A01 T00921089  RH  027%=      5-min Rain = 0
KEA1 122354Z 13012KT 09/M09 A301 RMK A01 T00921089  RH  027%=      5-min Rain = 0
KEA1 122355Z 13011KT 09/M09 A301 RMK A01 T00921088  RH  027%=      5-min Rain = 0
KEA1 122356Z 13011KT 09/M09 A301 RMK A01 T00911089  RH  027%=      5-min Rain = 0
KEA1 122357Z 14011KT 09/M09 A301 RMK A01 T00901089  RH  027%=      5-min Rain = 0
KEA1 122358Z 13010KT 09/M09 A301 RMK A01 T00891090  RH  027%=      5-min Rain = 0
KEA1 122359Z 14010KT 09/M09 A301 RMK A01 T00881090  RH  027%=      5-min Rain = 0
KEA1 130000Z 14009KT 09/M09 A301 RMK A01 T00871090  RH  028%=      5-min Rain = 0
KEA1 130001Z 13009KT 09/M09 A301 RMK A01 T00861090  RH  028%=      5-min Rain = 0
KEA1 130002Z 13011KT 08/M09 A301 RMK A01 T00841091  RH  028%=      5-min Rain = 0
KEA1 130003Z 14010KT 08/M09 A301 RMK A01 T00831091  RH  028%=      5-min Rain = 0
KEA1 130004Z 13010KT 08/M09 A301 RMK A01 T00831091  RH  028%=      5-min Rain = 0
KEA1 130005Z 13010KT 08/M09 A301 RMK A01 T00821091  RH  028%=      5-min Rain = 0
KEA1 130006Z 13011KT 08/M09 A301 RMK A01 T00821091  RH  028%=      5-min Rain = 0
KEA1 130007Z 13010KT 08/M09 A301 RMK A01 T00821091  RH  028%=      5-min Rain = 0
KEA1 130008Z 13010KT 08/M09 A301 RMK A01 T00811091  RH  028%=      5-min Rain = 0
KEA1 130009Z 14011KT 08/M09 A301 RMK A01 T00801092  RH  029%=      5-min Rain = 0
KEA1 130010Z 13009KT 08/M09 A301 RMK A01 T00801092  RH  029%=      5-min Rain = 0
KEA1 130011Z 14011KT 08/M09 A301 RMK A01 T00781092  RH  029%=      5-min Rain = 0
KEA1 130012Z 14010KT 08/M09 A301 RMK A01 T00771092  RH  029%=      5-min Rain = 0
KEA1 130013Z 14011KT 08/M09 A301 RMK A01 T00771092  RH  029%=      5-min Rain = 0
KEA1 130014Z 14011KT 08/M09 A301 RMK A01 T00761092  RH  029%=      5-min Rain = 0
KEA1 130015Z 14011KT 08/M09 A301 RMK A01 T00761092  RH  029%=      5-min Rain = 0
KEA1 130016Z 14011KT 08/M09 A301 RMK A01 T00751092  RH  029%=      5-min Rain = 0
KEA1 130017Z 14010KT 08/M09 A301 RMK A01 T00751092  RH  029%=      5-min Rain = 0
KEA1 130018Z 14011KT 08/M09 A301 RMK A01 T00751092  RH  029%=      5-min Rain = 0
KEA1 130019Z 14011KT 08/M09 A301 RMK A01 T00751092  RH  030%=      5-min Rain = 0
KEA1 130020Z 14010KT 07/M09 A301 RMK A01 T00741092  RH  030%=      5-min Rain = 0
KEA1 130021Z 14011KT 07/M09 A301 RMK A01 T00731093  RH  030%=      5-min Rain = 0
KEA1 130022Z 14011KT 07/M09 A3011 RMK A01 T00721092  RH  030%=      5-min Rain = 0
KEA1 130023Z 13010KT 07/M09 A3011 RMK A01 T00721093  RH  030%=      5-min Rain = 0
KEA1 130024Z 13009KT 07/M09 A3011 RMK A01 T00711092  RH  030%=      5-min Rain = 0
KEA1 130025Z 13011KT 07/M09 A3011 RMK A01 T00711092  RH  030%=      5-min Rain = 0
KEA1 130026Z 12009KT 07/M09 A3011 RMK A01 T00711092  RH  030%=      5-min Rain = 0
KEA1 130027Z 12009KT 07/M09 A3011 RMK A01 T00701092  RH  030%=      5-min Rain = 0
KEA1 130028Z 13009KT 07/M09 A3011 RMK A01 T00701093  RH  030%=      5-min Rain = 0
KEA1 130029Z 12008KT 07/M09 A3012 RMK A01 T00691093  RH  031%=      5-min Rain = 0
KEA1 130030Z 12008KT 07/M09 A3012 RMK A01 T00671094  RH  031%=      5-min Rain = 0
KEA1 130031Z 11007KT 07/M09 A3012 RMK A01 T00651094  RH  031%=      5-min Rain = 0
KEA1 130032Z 11007KT 06/M10 A3012 RMK A01 T00631095  RH  031%=      5-min Rain = 0
KEA1 130033Z 10007KT 06/M10 A3012 RMK A01 T00611095  RH  032%=      5-min Rain = 0
KEA1 130034Z 10007KT 06/M10 A3012 RMK A01 T00591096  RH  032%=      5-min Rain = 0
KEA1 130035Z 10007KT 06/M10 A3013 RMK A01 T00571096  RH  032%=      5-min Rain = 0
KEA1 130036Z 10007KT 06/M10 A3013 RMK A01 T00551097  RH  033%=      5-min Rain = 0
KEA1 130037Z 10007KT 05/M10 A3013 RMK A01 T00541097  RH  033%=      5-min Rain = 0
KEA1 130038Z 10006KT 05/M10 A3013 RMK A01 T00531097  RH  033%=      5-min Rain = 0
KEA1 130039Z 10006KT 05/M10 A3013 RMK A01 T00521097  RH  033%=      5-min Rain = 0
KEA1 130040Z 11007KT 05/M10 A3013 RMK A01 T00511097  RH  034%=      5-min Rain = 0
KEA1 130041Z 11008KT 05/M10 A3013 RMK A01 T00501096  RH  034%=      5-min Rain = 0
KEA1 130042Z 11009KT 05/M10 A3013 RMK A01 T00491096  RH  034%=      5-min Rain = 0
KEA1 130043Z 12009KT 05/M10 A3013 RMK A01 T00481096  RH  034%=      5-min Rain = 0
KEA1 130044Z 12009KT 05/M10 A3014 RMK A01 T00481096  RH  035%=      5-min Rain = 0
KEA1 130045Z 12009KT 05/M10 A3014 RMK A01 T00471096  RH  035%=      5-min Rain = 0
KEA1 130046Z 12009KT 05/M10 A3014 RMK A01 T00471096  RH  035%=      5-min Rain = 0
KEA1 130047Z 12009KT 05/M10 A3014 RMK A01 T00471096  RH  035%=      5-min Rain = 0
KEA1 130048Z 12009KT 05/M10 A3014 RMK A01 T00471096  RH  035%=      5-min Rain = 0
KEA1 130049Z 12009KT 05/M10 A3014 RMK A01 T00461096  RH  035%=      5-min Rain = 0
KEA1 130050Z 11008KT 04/M10 A3014 RMK A01 T00441098  RH  035%=      5-min Rain = 0
KEA1 130051Z 11008KT 04/M10 A3014 RMK A01 T00421098  RH  035%=      5-min Rain = 0
KEA1 130052Z 10008KT 04/M10 A3014 RMK A01 T00391098  RH  036%=      5-min Rain = 0
KEA1 130053Z 10008KT 04/M10 A3015 RMK A01 T00371099  RH  036%=      5-min Rain = 0
KEA1 130054Z 10007KT 04/M10 A3015 RMK A01 T00351098  RH  037%=      5-min Rain = 0
KEA1 130055Z 09006KT 03/M10 A3015 RMK A01 T00341097  RH  038%=      5-min Rain = 0
KEA1 130056Z 08007KT 03/M10 A3015 RMK A01 T00331096  RH  038%=      5-min Rain = 0
KEA1 130057Z 08009KT 03/M10 A3016 RMK A01 T00321095  RH  039%=      5-min Rain = 0
KEA1 130058Z 07009KT 03/M10 A3016 RMK A01 T00311095  RH  039%=      5-min Rain = 0
KEA1 130059Z 07010KT 03/M10 A3016 RMK A01 T00301095  RH  039%=      5-min Rain = 0
KEA1 130100Z 07009KT 03/M10 A3016 RMK A01 T00301095  RH  039%=      5-min Rain = 0
KEA1 130101Z 07009KT 03/M10 A3016 RMK A01 T00311096  RH  039%=      5-min Rain = 0
KEA1 130102Z 08008KT 03/M10 A3016 RMK A01 T00321096  RH  039%=      5-min Rain = 0
KEA1 130103Z 08008KT 03/M10 A3016 RMK A01 T00331096  RH  038%=      5-min Rain = 0
KEA1 130104Z 08007KT 03/M10 A3016 RMK A01 T00341096  RH  038%=      5-min Rain = 0
KEA1 130105Z 09007KT 04/M10 A3016 RMK A01 T00351096  RH  038%=      5-min Rain = 0
KEA1 130106Z 08007KT 04/M10 A3016 RMK A01 T00351096  RH  037%=      5-min Rain = 0
KEA1 130107Z 08008KT 04/M10 A3017 RMK A01 T00361097  RH  037%=      5-min Rain = 0
KEA1 130108Z 08009KT 04/M10 A3017 RMK A01 T00361097  RH  037%=      5-min Rain = 0
KEA1 130109Z 07009KT 04/M10 A3017 RMK A01 T00361098  RH  037%=      5-min Rain = 0
KEA1 130110Z 06009KT 04/M10 A3017 RMK A01 T00351098  RH  037%=      5-min Rain = 0
KEA1 130111Z 06010KT 03/M10 A3017 RMK A01 T00341098  RH  037%=      5-min Rain = 0
KEA1 130112Z 06010KT 03/M10 A3017 RMK A01 T00331098  RH  038%=      5-min Rain = 0
KEA1 130113Z 06010KT 03/M10 A3017 RMK A01 T00321098  RH  038%=      5-min Rain = 0
KEA1 130114Z 07010KT 03/M10 A3017 RMK A01 T00321098  RH  038%=      5-min Rain = 0
KEA1 130115Z 07009KT 03/M10 A3017 RMK A01 T00321098  RH  038%=      5-min Rain = 0
KEA1 130116Z 08007KT 03/M10 A3017 RMK A01 T00321098  RH  038%=      5-min Rain = 0
KEA1 130117Z 09007KT 03/M10 A3017 RMK A01 T00321098  RH  038%=      5-min Rain = 0
KEA1 130118Z 09006KT 03/M10 A3017 RMK A01 T00311099  RH  038%=      5-min Rain = 0
KEA1 130119Z 10007KT 03/M10 A3017 RMK A01 T00311099  RH  038%=      5-min Rain = 0
KEA1 130120Z 10008KT 03/M10 A3017 RMK A01 T00321099  RH  038%=      5-min Rain = 0
KEA1 130121Z 10008KT 03/M10 A3017 RMK A01 T00331098  RH  038%=      5-min Rain = 0
KEA1 130122Z 10008KT 04/M10 A3017 RMK A01 T00351098  RH  037%=      5-min Rain = 0
KEA1 130123Z 10008KT 04/M10 A3018 RMK A01 T00351098  RH  037%=      5-min Rain = 0
KEA1 130124Z 10007KT 04/M10 A3018 RMK A01 T00351099  RH  037%=      5-min Rain = 0
KEA1 130125Z 09007KT 03/M10 A3018 RMK A01 T00341099  RH  037%=      5-min Rain = 0
KEA1 130126Z 09007KT 03/M10 A3018 RMK A01 T00331100  RH  037%=      5-min Rain = 0
KEA1 130127Z 08007KT 03/M10 A3018 RMK A01 T00331099  RH  037%=      5-min Rain = 0
KEA1 130128Z 08008KT 03/M10 A3018 RMK A01 T00321100  RH  037%=      5-min Rain = 0
KEA1 130129Z 08008KT 03/M10 A3019 RMK A01 T00311100  RH  038%=      5-min Rain = 0
KEA1 130130Z 09007KT 03/M10 A3019 RMK A01 T00311100  RH  038%=      5-min Rain = 0
KEA1 130131Z 09007KT 03/M10 A3019 RMK A01 T00301100  RH  038%=      5-min Rain = 0
KEA1 130132Z 09007KT 03/M10 A3019 RMK A01 T00301100  RH  038%=      5-min Rain = 0
KEA1 130133Z 08008KT 03/M10 A3019 RMK A01 T00301100  RH  038%=      5-min Rain = 0
KEA1 130134Z 08009KT 03/M10 A3019 RMK A01 T00301100  RH  038%=      5-min Rain = 0
KEA1 130135Z 08010KT 03/M10 A302 RMK A01 T00301100  RH  038%=      5-min Rain = 0
KEA1 130136Z 07010KT 03/M10 A302 RMK A01 T00301099  RH  038%=      5-min Rain = 0
KEA1 130137Z 07010KT 03/M10 A302 RMK A01 T00301099  RH  038%=      5-min Rain = 0
KEA1 130138Z 07010KT 03/M10 A302 RMK A01 T00301099  RH  038%=      5-min Rain = 0
KEA1 130139Z 07010KT 03/M10 A302 RMK A01 T00301099  RH  038%=      5-min Rain = 0
KEA1 130140Z 07009KT 03/M10 A302 RMK A01 T00311099  RH  038%=      5-min Rain = 0
KEA1 130141Z 08009KT 03/M10 A302 RMK A01 T00321099  RH  038%=      5-min Rain = 0
KEA1 130142Z 08008KT 03/M10 A302 RMK A01 T00321099  RH  038%=      5-min Rain = 0
KEA1 130143Z 08007KT 03/M10 A302 RMK A01 T00331098  RH  037%=      5-min Rain = 0
KEA1 130144Z 09006KT 03/M10 A302 RMK A01 T00331099  RH  037%=      5-min Rain = 0
KEA1 130145Z 09006KT 03/M10 A302 RMK A01 T00331099  RH  037%=      5-min Rain = 0
KEA1 130146Z 09006KT 03/M10 A302 RMK A01 T00331100  RH  037%=      5-min Rain = 0
KEA1 130147Z 09006KT 03/M10 A302 RMK A01 T00331099  RH  037%=      5-min Rain = 0
KEA1 130148Z 09005KT 03/M10 A3021 RMK A01 T00331099  RH  037%=      5-min Rain = 0
KEA1 130149Z 09005KT 03/M10 A3021 RMK A01 T00331100  RH  037%=      5-min Rain = 0
KEA1 130150Z 08006KT 03/M10 A3021 RMK A01 T00321100  RH  037%=      5-min Rain = 0
KEA1 130151Z 08007KT 03/M10 A3021 RMK A01 T00311101  RH  037%=      5-min Rain = 0
KEA1 130152Z 07007KT 03/M10 A3021 RMK A01 T00301101  RH  038%=      5-min Rain = 0
KEA1 130153Z 06006KT 03/M10 A3021 RMK A01 T00271102  RH  038%=      5-min Rain = 0
KEA1 130154Z 06008KT 02/M10 A3022 RMK A01 T00241103  RH  038%=      5-min Rain = 0
KEA1 130155Z 07008KT 02/M10 A3022 RMK A01 T00221103  RH  039%=      5-min Rain = 0
KEA1 130156Z 07008KT 02/M10 A3022 RMK A01 T00201103  RH  040%=      5-min Rain = 0
KEA1 130157Z 07008KT 02/M10 A3022 RMK A01 T00181104  RH  040%=      5-min Rain = 0
KEA1 130158Z 07008KT 02/M10 A3022 RMK A01 T00161104  RH  040%=      5-min Rain = 0
KEA1 130159Z 07009KT 02/M10 A3022 RMK A01 T00151104  RH  041%=      5-min Rain = 0
KEA1 130200Z 06009KT 01/M10 A3022 RMK A01 T00131104  RH  041%=      5-min Rain = 0
KEA1 130201Z 06009KT 01/M10 A3023 RMK A01 T00131103  RH  042%=      5-min Rain = 0
KEA1 130202Z 05009KT 01/M10 A3023 RMK A01 T00121102  RH  042%=      5-min Rain = 0
KEA1 130203Z 05009KT 01/M10 A3023 RMK A01 T00111102  RH  042%=      5-min Rain = 0
KEA1 130204Z 05009KT 01/M10 A3023 RMK A01 T00111101  RH  043%=      5-min Rain = 0
KEA1 130205Z 05008KT 01/M10 A3023 RMK A01 T00111101  RH  043%=      5-min Rain = 0
KEA1 130206Z 06008KT 01/M10 A3023 RMK A01 T00101102  RH  043%=      5-min Rain = 0
KEA1 130207Z 06008KT 01/M10 A3024 RMK A01 T00101101  RH  043%=      5-min Rain = 0
KEA1 130208Z 06009KT 01/M10 A3024 RMK A01 T00101101  RH  043%=      5-min Rain = 0
KEA1 130209Z 07010KT 01/M10 A3024 RMK A01 T00101100  RH  043%=      5-min Rain = 0
KEA1 130210Z 07011KT 01/M10 A3024 RMK A01 T00141099  RH  043%=      5-min Rain = 0
KEA1 130211Z 08010KT 02/M10 A3024 RMK A01 T00181097  RH  042%=      5-min Rain = 0
KEA1 130212Z 08010KT 02/M10 A3024 RMK A01 T00221096  RH  041%=      5-min Rain = 0
KEA1 130213Z 08009KT 02/M10 A3024 RMK A01 T00241097  RH  041%=      5-min Rain = 0
KEA1 130214Z 08009KT 03/M10 A3024 RMK A01 T00251097  RH  040%=      5-min Rain = 0
KEA1 130215Z 08008KT 03/M10 A3024 RMK A01 T00261097  RH  040%=      5-min Rain = 0
KEA1 130216Z 08007KT 03/M10 A3024 RMK A01 T00261098  RH  040%=      5-min Rain = 0
KEA1 130217Z 07008KT 02/M10 A3024 RMK A01 T00241098  RH  040%=      5-min Rain = 0
KEA1 130218Z 06009KT 02/M10 A3024 RMK A01 T00231099  RH  040%=      5-min Rain = 0
KEA1 130219Z 06010KT 02/M10 A3025 RMK A01 T00211099  RH  041%=      5-min Rain = 0
KEA1 130220Z 06011KT 02/M10 A3025 RMK A01 T00201099  RH  041%=      5-min Rain = 0
KEA1 130221Z 05011KT 02/M10 A3025 RMK A01 T00191099  RH  041%=      5-min Rain = 0
KEA1 130222Z 05011KT 02/M10 A3026 RMK A01 T00191099  RH  041%=      5-min Rain = 0
KEA1 130223Z 05011KT 02/M10 A3026 RMK A01 T00201098  RH  041%=      5-min Rain = 0
KEA1 130224Z 05011KT 02/M10 A3026 RMK A01 T00201097  RH  041%=      5-min Rain = 0
KEA1 130225Z 05011KT 02/M10 A3026 RMK A01 T00211097  RH  041%=      5-min Rain = 0
KEA1 130226Z 05011KT 02/M10 A3026 RMK A01 T00211097  RH  041%=      5-min Rain = 0
KEA1 130227Z 05010KT 02/M10 A3026 RMK A01 T00211097  RH  041%=      5-min Rain = 0
KEA1 130228Z 06010KT 02/M10 A3026 RMK A01 T00211097  RH  041%=      5-min Rain = 0
KEA1 130229Z 07009KT 02/M10 A3026 RMK A01 T00221096  RH  041%=      5-min Rain = 0
KEA1 130230Z 08009KT 02/M10 A3026 RMK A01 T00231096  RH  041%=      5-min Rain = 0
KEA1 130231Z 08009KT 02/M10 A3026 RMK A01 T00241095  RH  041%=      5-min Rain = 0
KEA1 130232Z 08010KT 03/M10 A3026 RMK A01 T00271095  RH  040%=      5-min Rain = 0
KEA1 130233Z 07011KT 03/M10 A3027 RMK A01 T00271096  RH  040%=      5-min Rain = 0
KEA1 130234Z 07011KT 03/M10 A3027 RMK A01 T00281096  RH  040%=      5-min Rain = 0
KEA1 130235Z 08010KT 03/M10 A3027 RMK A01 T00281095  RH  040%=      5-min Rain = 0
KEA1 130236Z 08010KT 03/M10 A3027 RMK A01 T00281096  RH  040%=      5-min Rain = 0
KEA1 130237Z 08009KT 03/M10 A3027 RMK A01 T00291095  RH  040%=      5-min Rain = 0
KEA1 130238Z 08009KT 03/M10 A3027 RMK A01 T00281096  RH  040%=      5-min Rain = 0
KEA1 130239Z 08010KT 03/M10 A3027 RMK A01 T00271096  RH  040%=      5-min Rain = 0
KEA1 130240Z 08008KT 03/M10 A3027 RMK A01 T00271096  RH  040%=      5-min Rain = 0
KEA1 130241Z 08008KT 03/M10 A3027 RMK A01 T00271096  RH  040%=      5-min Rain = 0
KEA1 130242Z 09007KT 03/M10 A3027 RMK A01 T00261097  RH  040%=      5-min Rain = 0
KEA1 130243Z 09007KT 03/M10 A3027 RMK A01 T00261097  RH  040%=      5-min Rain = 0
KEA1 130244Z 09007KT 03/M10 A3027 RMK A01 T00261097  RH  040%=      5-min Rain = 0
KEA1 130245Z 09007KT 03/M10 A3027 RMK A01 T00271098  RH  039%=      5-min Rain = 0
KEA1 130246Z 09007KT 03/M10 A3027 RMK A01 T00281098  RH  039%=      5-min Rain = 0
KEA1 130247Z 09008KT 03/M10 A3027 RMK A01 T00291098  RH  039%=      5-min Rain = 0
KEA1 130248Z 10008KT 03/M10 A3027 RMK A01 T00291098  RH  039%=      5-min Rain = 0
KEA1 130249Z 10007KT 03/M10 A3027 RMK A01 T00301099  RH  038%=      5-min Rain = 0
KEA1 130250Z 10008KT 03/M10 A3027 RMK A01 T00301099  RH  038%=      5-min Rain = 0
KEA1 130251Z 10007KT 03/M10 A3027 RMK A01 T00301099  RH  038%=      5-min Rain = 0
KEA1 130252Z 10007KT 03/M10 A3027 RMK A01 T00301100  RH  038%=      5-min Rain = 0
KEA1 130253Z 09006KT 03/M10 A3028 RMK A01 T00291100  RH  038%=      5-min Rain = 0
KEA1 130254Z 08007KT 03/M10 A3028 RMK A01 T00281101  RH  038%=      5-min Rain = 0
KEA1 130255Z 08008KT 03/M10 A3028 RMK A01 T00271102  RH  038%=      5-min Rain = 0
KEA1 130256Z 08008KT 03/M10 A3028 RMK A01 T00251102  RH  038%=      5-min Rain = 0
KEA1 130257Z 08008KT 03/M10 A3028 RMK A01 T00251102  RH  038%=      5-min Rain = 0
KEA1 130258Z 07008KT 03/M10 A3028 RMK A01 T00251103  RH  039%=      5-min Rain = 0
KEA1 130259Z 07010KT 02/M10 A3029 RMK A01 T00231104  RH  039%=      5-min Rain = 0
KEA1 130300Z 07011KT 02/M10 A3029 RMK A01 T00221104  RH  039%=      5-min Rain = 0
KEA1 130301Z 06011KT 02/M10 A3029 RMK A01 T00221104  RH  039%=      5-min Rain = 0
KEA1 130302Z 07010KT 02/M10 A303 RMK A01 T00221104  RH  039%=      5-min Rain = 0
KEA1 130303Z 07009KT 02/M10 A303 RMK A01 T00221104  RH  039%=      5-min Rain = 0
KEA1 130304Z 08008KT 02/M10 A3029 RMK A01 T00211104  RH  039%=      5-min Rain = 0
KEA1 130305Z 08006KT 02/M10 A3029 RMK A01 T00211104  RH  039%=      5-min Rain = 0
KEA1 130306Z 08007KT 02/M10 A3029 RMK A01 T00211104  RH  039%=      5-min Rain = 0
KEA1 130307Z 08007KT 02/M11 A3029 RMK A01 T00211105  RH  039%=      5-min Rain = 0
KEA1 130308Z 09006KT 02/M11 A303 RMK A01 T00211105  RH  039%=      5-min Rain = 0
KEA1 130309Z 09006KT 02/M11 A303 RMK A01 T00211106  RH  039%=      5-min Rain = 0
KEA1 130310Z 09006KT 02/M11 A303 RMK A01 T00201106  RH  039%=      5-min Rain = 0
KEA1 130311Z 09006KT 02/M11 A303 RMK A01 T00191106  RH  039%=      5-min Rain = 0
KEA1 130312Z 08007KT 02/M11 A303 RMK A01 T00171107  RH  039%=      5-min Rain = 0
KEA1 130313Z 09007KT 02/M11 A303 RMK A01 T00181106  RH  039%=      5-min Rain = 0
KEA1 130314Z 08007KT 02/M11 A303 RMK A01 T00171107  RH  039%=      5-min Rain = 0
KEA1 130315Z 08008KT 02/M11 A303 RMK A01 T00161108  RH  039%=      5-min Rain = 0
KEA1 130316Z 09008KT 02/M11 A303 RMK A01 T00161107  RH  039%=      5-min Rain = 0
KEA1 130317Z 09007KT 02/M11 A303 RMK A01 T00161108  RH  039%=      5-min Rain = 0
KEA1 130318Z 10007KT 02/M11 A303 RMK A01 T00161108  RH  039%=      5-min Rain = 0
KEA1 130319Z 10008KT 02/M11 A303 RMK A01 T00161108  RH  039%=      5-min Rain = 0
KEA1 130320Z 10008KT 02/M11 A303 RMK A01 T00181108  RH  039%=      5-min Rain = 0
KEA1 130321Z 09007KT 02/M11 A303 RMK A01 T00191108  RH  039%=      5-min Rain = 0
KEA1 130322Z 09007KT 02/M11 A303 RMK A01 T00181108  RH  038%=      5-min Rain = 0
KEA1 130323Z 09007KT 02/M11 A303 RMK A01 T00171109  RH  039%=      5-min Rain = 0
KEA1 130324Z 09007KT 02/M11 A303 RMK A01 T00161109  RH  039%=      5-min Rain = 0
KEA1 130325Z 10008KT 02/M11 A303 RMK A01 T00161109  RH  039%=      5-min Rain = 0
KEA1 130326Z 10007KT 02/M11 A303 RMK A01 T00151109  RH  039%=      5-min Rain = 0
KEA1 130327Z 10006KT 02/M11 A303 RMK A01 T00151109  RH  039%=      5-min Rain = 0
KEA1 130328Z 09005KT 01/M11 A303 RMK A01 T00141110  RH  039%=      5-min Rain = 0
KEA1 130329Z 09005KT 01/M11 A303 RMK A01 T00121110  RH  040%=      5-min Rain = 0
KEA1 130330Z 08006KT 01/M11 A3031 RMK A01 T00111110  RH  040%=      5-min Rain = 0
KEA1 130331Z 08006KT 01/M11 A3031 RMK A01 T00101111  RH  040%=      5-min Rain = 0
KEA1 130332Z 08007KT 01/M11 A3031 RMK A01 T00091111  RH  040%=      5-min Rain = 0
KEA1 130333Z 08007KT 01/M11 A3031 RMK A01 T00091111  RH  041%=      5-min Rain = 0
KEA1 130334Z 07009KT 01/M11 A3031 RMK A01 T00091110  RH  041%=      5-min Rain = 0
KEA1 130335Z 07010KT 01/M11 A3032 RMK A01 T00091110  RH  041%=      5-min Rain = 0
KEA1 130336Z 08010KT 01/M11 A3032 RMK A01 T00101111  RH  040%=      5-min Rain = 0
KEA1 130337Z 09008KT 01/M11 A3031 RMK A01 T00111111  RH  040%=      5-min Rain = 0
KEA1 130338Z 09007KT 01/M11 A3031 RMK A01 T00121112  RH  039%=      5-min Rain = 0
KEA1 130339Z 10008KT 01/M11 A3031 RMK A01 T00121112  RH  039%=      5-min Rain = 0
KEA1 130340Z 10008KT 01/M11 A3031 RMK A01 T00131113  RH  039%=      5-min Rain = 0
KEA1 130341Z 10007KT 01/M11 A3031 RMK A01 T00131113  RH  039%=      5-min Rain = 0
KEA1 130342Z 09007KT 01/M11 A3032 RMK A01 T00121114  RH  039%=      5-min Rain = 0
KEA1 130343Z 09007KT 01/M11 A3032 RMK A01 T00121113  RH  039%=      5-min Rain = 0
KEA1 130344Z 09007KT 01/M11 A3032 RMK A01 T00121114  RH  039%=      5-min Rain = 0
KEA1 130345Z 09007KT 01/M11 A3032 RMK A01 T00121114  RH  039%=      5-min Rain = 0
KEA1 130346Z 08008KT 01/M12 A3032 RMK A01 T00121115  RH  038%=      5-min Rain = 0
KEA1 130347Z 08009KT 01/M12 A3032 RMK A01 T00111115  RH  038%=      5-min Rain = 0
KEA1 130348Z 08009KT 01/M12 A3033 RMK A01 T00121115  RH  038%=      5-min Rain = 0
KEA1 130349Z 09008KT 01/M12 A3033 RMK A01 T00111115  RH  038%=      5-min Rain = 0
KEA1 130350Z 09006KT 01/M12 A3033 RMK A01 T00111116  RH  038%=      5-min Rain = 0
KEA1 130351Z 09007KT 01/M12 A3033 RMK A01 T00101116  RH  038%=      5-min Rain = 0
KEA1 130352Z 08009KT 01/M12 A3033 RMK A01 T00091117  RH  038%=      5-min Rain = 0
KEA1 130353Z 08009KT 01/M12 A3033 RMK A01 T00091117  RH  038%=      5-min Rain = 0
KEA1 130354Z 08009KT 01/M12 A3033 RMK A01 T00091117  RH  038%=      5-min Rain = 0
KEA1 130355Z 08007KT 01/M12 A3033 RMK A01 T00091117  RH  038%=      5-min Rain = 0
KEA1 130356Z 09007KT 01/M12 A3033 RMK A01 T00091117  RH  038%=      5-min Rain = 0
KEA1 130357Z 09007KT 01/M12 A3033 RMK A01 T00081117  RH  038%=      5-min Rain = 0
KEA1 130358Z 09006KT 01/M12 A3033 RMK A01 T00081118  RH  039%=      5-min Rain = 0
KEA1 130359Z 09007KT 01/M12 A3033 RMK A01 T00081117  RH  039%=      5-min Rain = 0
KEA1 130400Z 09007KT 01/M12 A3033 RMK A01 T00071118  RH  039%=      5-min Rain = 0
KEA1 130401Z 08007KT 01/M12 A3033 RMK A01 T00071118  RH  039%=      5-min Rain = 0
KEA1 130402Z 08007KT 01/M12 A3034 RMK A01 T00061118  RH  039%=      5-min Rain = 0
KEA1 130403Z 08008KT 01/M12 A3034 RMK A01 T00051119  RH  039%=      5-min Rain = 0
KEA1 130404Z 08009KT 01/M12 A3034 RMK A01 T00051119  RH  039%=      5-min Rain = 0
KEA1 130405Z 07008KT 00/M12 A3034 RMK A01 T00041119  RH  039%=      5-min Rain = 0
KEA1 130406Z 06008KT 00/M12 A3034 RMK A01 T00031119  RH  039%=      5-min Rain = 0
KEA1 130407Z 06008KT 00/M12 A3034 RMK A01 T00011119  RH  040%=      5-min Rain = 0
KEA1 130408Z 07007KT 00/12 A3035 RMK A01 T00-00-120  RH  040%=      5-min Rain = 0
KEA1 130409Z 07007KT M00/M12 A3035 RMK A01 T10031120  RH  041%=      5-min Rain = 0
KEA1 130410Z 07006KT M00/M12 A3034 RMK A01 T10041120  RH  041%=      5-min Rain = 0
KEA1 130411Z 07006KT M01/M12 A3035 RMK A01 T10051120  RH  042%=      5-min Rain = 0
KEA1 130412Z 07005KT M01/M12 A3035 RMK A01 T10061121  RH  042%=      5-min Rain = 0
KEA1 130413Z 07006KT M01/M12 A3035 RMK A01 T10081121  RH  042%=      5-min Rain = 0
KEA1 130414Z 07007KT M01/M12 A3035 RMK A01 T10091121  RH  042%=      5-min Rain = 0
KEA1 130415Z 07007KT M01/M12 A3035 RMK A01 T10111122  RH  043%=      5-min Rain = 0
KEA1 130416Z 07007KT M01/M12 A3035 RMK A01 T10111121  RH  043%=      5-min Rain = 0
KEA1 130417Z 07007KT M01/M12 A3035 RMK A01 T10121122  RH  043%=      5-min Rain = 0
KEA1 130418Z 07008KT M01/M12 A3035 RMK A01 T10131122  RH  043%=      5-min Rain = 0
KEA1 130419Z 08007KT M01/M12 A3035 RMK A01 T10141121  RH  044%=      5-min Rain = 0
KEA1 130420Z 07007KT M01/M12 A3035 RMK A01 T10141121  RH  044%=      5-min Rain = 0
KEA1 130421Z 07008KT M02/M12 A3035 RMK A01 T10151121  RH  044%=      5-min Rain = 0
KEA1 130422Z 07008KT M02/M12 A3035 RMK A01 T10151121  RH  044%=      5-min Rain = 0
KEA1 130423Z 08008KT M02/M12 A3035 RMK A01 T10171122  RH  045%=      5-min Rain = 0
KEA1 130424Z 09006KT M02/M12 A3035 RMK A01 T10171121  RH  045%=      5-min Rain = 0
KEA1 130425Z 10006KT M02/M12 A3035 RMK A01 T10171121  RH  045%=      5-min Rain = 0
KEA1 130426Z 10006KT M02/M12 A3035 RMK A01 T10171120  RH  045%=      5-min Rain = 0
KEA1 130427Z 10006KT M02/M12 A3035 RMK A01 T10161120  RH  045%=      5-min Rain = 0
KEA1 130428Z 10006KT M02/M12 A3035 RMK A01 T10171121  RH  045%=      5-min Rain = 0
KEA1 130429Z 10006KT M02/M12 A3035 RMK A01 T10171121  RH  045%=      5-min Rain = 0
KEA1 130430Z 11007KT M02/M12 A3035 RMK A01 T10171121  RH  045%=      5-min Rain = 0
KEA1 130431Z 12008KT M02/M12 A3035 RMK A01 T10171121  RH  045%=      5-min Rain = 0
KEA1 130432Z 11007KT M02/M12 A3035 RMK A01 T10171121  RH  045%=      5-min Rain = 0
KEA1 130433Z 10005KT M02/M12 A3035 RMK A01 T10171121  RH  045%=      5-min Rain = 0
KEA1 130434Z 10004KT M02/M12 A3036 RMK A01 T10171121  RH  045%=      5-min Rain = 0
KEA1 130435Z 08003KT M02/M12 A3036 RMK A01 T10161121  RH  045%=      5-min Rain = 0
KEA1 130436Z 06003KT M02/M12 A3037 RMK A01 T10171121  RH  045%=      5-min Rain = 0
KEA1 130437Z 03004KT M02/M12 A3037 RMK A01 T10171121  RH  045%=      5-min Rain = 0
KEA1 130438Z 03006KT M02/M12 A3038 RMK A01 T10181122  RH  045%=      5-min Rain = 0
KEA1 130439Z 03006KT M02/M12 A3038 RMK A01 T10201122  RH  045%=      5-min Rain = 0
KEA1 130440Z 03007KT M02/M12 A3038 RMK A01 T10201122  RH  046%=      5-min Rain = 0
KEA1 130441Z 04008KT M02/M12 A3038 RMK A01 T10221122  RH  046%=      5-min Rain = 0
KEA1 130442Z 04007KT M02/M12 A3038 RMK A01 T10231121  RH  047%=      5-min Rain = 0
KEA1 130443Z 05007KT M02/M12 A3038 RMK A01 T10231120  RH  047%=      5-min Rain = 0
KEA1 130444Z 04006KT M02/M12 A3038 RMK A01 T10221119  RH  047%=      5-min Rain = 0
KEA1 130445Z 03007KT M02/M12 A3038 RMK A01 T10221119  RH  047%=      5-min Rain = 0
KEA1 130446Z 03008KT M02/M12 A3038 RMK A01 T10221119  RH  047%=      5-min Rain = 0
KEA1 130447Z 03008KT M02/M12 A3038 RMK A01 T10231119  RH  048%=      5-min Rain = 0
KEA1 130448Z 03008KT M02/M12 A3038 RMK A01 T10231119  RH  048%=      5-min Rain = 0
KEA1 130449Z 03008KT M02/M12 A3038 RMK A01 T10241119  RH  048%=      5-min Rain = 0
KEA1 130450Z 04008KT M03/M12 A3038 RMK A01 T10251119  RH  049%=      5-min Rain = 0
KEA1 130451Z 05009KT M03/M12 A3038 RMK A01 T10251118  RH  049%=      5-min Rain = 0
KEA1 130452Z 06010KT M03/M12 A3037 RMK A01 T10251118  RH  049%=      5-min Rain = 0
KEA1 130453Z 06010KT M03/M12 A3037 RMK A01 T10251118  RH  049%=      5-min Rain = 0
KEA1 130454Z 06011KT M03/M12 A3037 RMK A01 T10251117  RH  049%=      5-min Rain = 0
KEA1 130455Z 07010KT M02/M12 A3037 RMK A01 T10241117  RH  049%=      5-min Rain = 0
KEA1 130456Z 08010KT M02/M12 A3037 RMK A01 T10231116  RH  049%=      5-min Rain = 0
KEA1 130457Z 08009KT M02/M12 A3037 RMK A01 T10221116  RH  048%=      5-min Rain = 0
KEA1 130458Z 08008KT M02/M12 A3037 RMK A01 T10211116  RH  048%=      5-min Rain = 0
KEA1 130459Z 07006KT M02/M12 A3037 RMK A01 T10191116  RH  048%=      5-min Rain = 0
KEA1 130500Z 06006KT M02/M12 A3038 RMK A01 T10191116  RH  047%=      5-min Rain = 0
KEA1 130501Z 06005KT M02/M12 A3038 RMK A01 T10181116  RH  047%=      5-min Rain = 0
KEA1 130502Z 05005KT M02/M12 A3038 RMK A01 T10171116  RH  047%=      5-min Rain = 0
KEA1 130503Z 05005KT M02/M12 A3038 RMK A01 T10171116  RH  047%=      5-min Rain = 0
KEA1 130504Z 05005KT M02/M12 A3038 RMK A01 T10171116  RH  047%=      5-min Rain = 0
KEA1 130505Z 06005KT M02/M12 A3038 RMK A01 T10171116  RH  047%=      5-min Rain = 0
KEA1 130506Z 07005KT M02/M12 A3038 RMK A01 T10171116  RH  047%=      5-min Rain = 0
KEA1 130507Z 07006KT M02/M12 A3038 RMK A01 T10161116  RH  047%=      5-min Rain = 0
KEA1 130508Z 08006KT M02/M12 A3038 RMK A01 T10171116  RH  047%=      5-min Rain = 0
KEA1 130509Z 08007KT M02/M12 A3038 RMK A01 T10171116  RH  047%=      5-min Rain = 0
KEA1 130510Z 08005KT M02/M12 A3038 RMK A01 T10161116  RH  047%=      5-min Rain = 0
KEA1 130511Z 08005KT M02/M12 A3038 RMK A01 T10161116  RH  047%=      5-min Rain = 0
KEA1 130512Z 08006KT M02/M12 A3038 RMK A01 T10161116  RH  046%=      5-min Rain = 0
KEA1 130513Z 08006KT M02/M12 A3039 RMK A01 T10171117  RH  047%=      5-min Rain = 0
KEA1 130514Z 07006KT M02/M12 A3039 RMK A01 T10181117  RH  047%=      5-min Rain = 0
KEA1 130515Z 07006KT M02/M12 A3039 RMK A01 T10191117  RH  047%=      5-min Rain = 0
KEA1 130516Z 07005KT M02/M12 A3039 RMK A01 T10191117  RH  047%=      5-min Rain = 0
KEA1 130517Z 07005KT M02/M12 A3039 RMK A01 T10191116  RH  047%=      5-min Rain = 0
KEA1 130518Z 08005KT M02/M12 A3039 RMK A01 T10191116  RH  048%=      5-min Rain = 0
KEA1 130519Z 08005KT M02/M12 A3039 RMK A01 T10191116  RH  047%=      5-min Rain = 0
KEA1 130520Z 07005KT M02/M12 A3039 RMK A01 T10191116  RH  047%=      5-min Rain = 0
KEA1 130521Z 08005KT M02/M12 A3038 RMK A01 T10191116  RH  047%=      5-min Rain = 0
KEA1 130522Z 09004KT M02/M12 A3038 RMK A01 T10191116  RH  047%=      5-min Rain = 0
KEA1 130523Z 10004KT M02/M12 A3038 RMK A01 T10191116  RH  047%=      5-min Rain = 0
KEA1 130524Z 10004KT M02/M12 A3039 RMK A01 T10191116  RH  047%=      5-min Rain = 0
KEA1 130525Z 10004KT M02/M12 A3039 RMK A01 T10191116  RH  047%=      5-min Rain = 0
KEA1 130526Z 10003KT M02/M12 A3039 RMK A01 T10191116  RH  047%=      5-min Rain = 0
KEA1 130527Z 10003KT M02/M12 A3039 RMK A01 T10201117  RH  047%=      5-min Rain = 0
KEA1 130528Z 11003KT M02/M12 A3039 RMK A01 T10191116  RH  047%=      5-min Rain = 0
KEA1 130529Z 12004KT M02/M12 A3039 RMK A01 T10181116  RH  047%=      5-min Rain = 0
KEA1 130530Z 12004KT M02/M12 A3039 RMK A01 T10181117  RH  047%=      5-min Rain = 0
KEA1 130531Z 12005KT M02/M12 A3039 RMK A01 T10191117  RH  047%=      5-min Rain = 0
KEA1 130532Z 12005KT M02/M12 A3039 RMK A01 T10201118  RH  047%=      5-min Rain = 0
KEA1 130533Z 12005KT M02/M12 A3039 RMK A01 T10221120  RH  047%=      5-min Rain = 0
KEA1 130534Z 12005KT M02/M12 A3039 RMK A01 T10221118  RH  048%=      5-min Rain = 0
KEA1 130535Z 12005KT M02/M12 A3039 RMK A01 T10221119  RH  048%=      5-min Rain = 0
KEA1 130536Z 12005KT M02/M12 A3039 RMK A01 T10221119  RH  047%=      5-min Rain = 0
KEA1 130537Z 11006KT M02/M12 A3039 RMK A01 T10221120  RH  047%=      5-min Rain = 0
KEA1 130538Z 11006KT M02/M12 A3039 RMK A01 T10221120  RH  047%=      5-min Rain = 0
KEA1 130539Z 11005KT M02/M12 A3039 RMK A01 T10221121  RH  047%=      5-min Rain = 0
KEA1 130540Z 11005KT M02/M12 A3039 RMK A01 T10221121  RH  046%=      5-min Rain = 0
KEA1 130541Z 10004KT M02/M12 A304 RMK A01 T10221121  RH  046%=      5-min Rain = 0
KEA1 130542Z 10004KT M02/M12 A304 RMK A01 T10211121  RH  046%=      5-min Rain = 0
KEA1 130543Z 10004KT M02/M12 A304 RMK A01 T10211121  RH  046%=      5-min Rain = 0
KEA1 130544Z 10003KT M02/M12 A304 RMK A01 T10211121  RH  046%=      5-min Rain = 0
KEA1 130545Z 10003KT M02/M12 A304 RMK A01 T10211121  RH  046%=      5-min Rain = 0
KEA1 130546Z 10003KT M02/M12 A304 RMK A01 T10221122  RH  046%=      5-min Rain = 0
KEA1 130547Z 10003KT M02/M12 A304 RMK A01 T10221122  RH  046%=      5-min Rain = 0
KEA1 130548Z 08003KT M03/M12 A304 RMK A01 T10251124  RH  047%=      5-min Rain = 0
KEA1 130549Z 07004KT M03/M12 A304 RMK A01 T10271124  RH  047%=      5-min Rain = 0
KEA1 130550Z 07004KT M03/M12 A304 RMK A01 T10271123  RH  048%=      5-min Rain = 0
KEA1 130551Z 07004KT M03/M12 A304 RMK A01 T10271122  RH  048%=      5-min Rain = 0
KEA1 130552Z 08004KT M03/M12 A304 RMK A01 T10271122  RH  048%=      5-min Rain = 0
KEA1 130553Z 08004KT M03/M12 A304 RMK A01 T10261121  RH  048%=      5-min Rain = 0
KEA1 130554Z 08003KT M03/M12 A304 RMK A01 T10261121  RH  048%=      5-min Rain = 0
KEA1 130555Z 08003KT M03/M12 A304 RMK A01 T10251121  RH  048%=      5-min Rain = 0
KEA1 130556Z 08004KT M02/M12 A3041 RMK A01 T10241121  RH  047%=      5-min Rain = 0
KEA1 130557Z 08003KT M02/M12 A3041 RMK A01 T10231121  RH  047%=      5-min Rain = 0
KEA1 130558Z 08004KT M02/M12 A3041 RMK A01 T10231121  RH  047%=      5-min Rain = 0
KEA1 130559Z 08003KT M02/M12 A3041 RMK A01 T10231121  RH  047%=      5-min Rain = 0

Page generated in 0.0764 seconds.